CES7630 ZUXC-PHNL
Flight info
| Callsign | CES7630 |
|---|---|
| Flight time | N/A |
| Altitude | 35100 |
| Route | BOPTU W162 KAKMI W144 IGNAK W179 WFX B213 ESPEG V154 SNF W269 OLPOV B213 WHA R343 PK A593 AKARA/K0907F351 A593 LAMEN/N0492F351 A593 SADLI Y590 BEDAR Y591 FUE Y23 KASTE Y81 TASOT Y57 LIGNI Y816 IPROS Y830 LAPIL OTR13 SEALS DCT 34N153E DCT 34N159E DCT 33N166E DCT 31N173E DCT 29N179E DCT 27N174W DCT 25N168W DCT CANON DCT CANON |
| Aircraft | MD11/H-SDE1E2E3FGHIJ2J3J4J5M1RWXY/LB1D1 |
Departure
| Time | 2026-04-24 14:13 |
|---|---|
| Airport | Xichang Qingshan Airport (ZUXC) |
Arrival
| Time | N/A |
|---|---|
| Airport | Daniel K. Inouye International Airport (PHNL) |
| Time | Latitude | Longitude | Altitude | Speed | Heading |
|---|---|---|---|---|---|
| 2026-04-24 13:56 | 27.98292 | 102.18647 | 5106 ft | 0 kts | 88° |
| 2026-04-24 14:04 | 27.98292 | 102.18646 | 5089 ft | 1 kts | 88° |
| 2026-04-24 14:04 | 27.98292 | 102.18627 | 5089 ft | 2 kts | 81° |
| 2026-04-24 14:05 | 27.98288 | 102.18609 | 5089 ft | 3 kts | 49° |
| 2026-04-24 14:05 | 27.98277 | 102.18597 | 5089 ft | 2 kts | 15° |
| 2026-04-24 14:05 | 27.98267 | 102.18594 | 5089 ft | 1 kts | 3° |
| 2026-04-24 14:05 | 27.98263 | 102.18593 | 5089 ft | 0 kts | 357° |
| 2026-04-24 14:07 | 27.98269 | 102.18593 | 5089 ft | 3 kts | 357° |
| 2026-04-24 14:07 | 27.98312 | 102.18590 | 5089 ft | 9 kts | 357° |
| 2026-04-24 14:07 | 27.98393 | 102.18586 | 5089 ft | 14 kts | 357° |
| 2026-04-24 14:07 | 27.98508 | 102.18582 | 5089 ft | 19 kts | 358° |
| 2026-04-24 14:08 | 27.98653 | 102.18577 | 5089 ft | 22 kts | 358° |
| 2026-04-24 14:08 | 27.98805 | 102.18572 | 5089 ft | 22 kts | 358° |
| 2026-04-24 14:08 | 27.98955 | 102.18567 | 5090 ft | 22 kts | 358° |
| 2026-04-24 14:08 | 27.99105 | 102.18558 | 5090 ft | 22 kts | 357° |
| 2026-04-24 14:09 | 27.99255 | 102.18554 | 5090 ft | 21 kts | 359° |
| 2026-04-24 14:09 | 27.99404 | 102.18549 | 5090 ft | 22 kts | 358° |
| 2026-04-24 14:09 | 27.99555 | 102.18544 | 5090 ft | 22 kts | 358° |
| 2026-04-24 14:09 | 27.99655 | 102.18539 | 5090 ft | 22 kts | 358° |
| 2026-04-24 14:10 | 27.99808 | 102.18532 | 5089 ft | 22 kts | 358° |
| 2026-04-24 14:10 | 27.99963 | 102.18526 | 5089 ft | 22 kts | 358° |
| 2026-04-24 14:10 | 28.00118 | 102.18521 | 5089 ft | 22 kts | 358° |
| 2026-04-24 14:10 | 28.00274 | 102.18514 | 5089 ft | 23 kts | 358° |
| 2026-04-24 14:11 | 28.00449 | 102.18507 | 5090 ft | 9 kts | 358° |
| 2026-04-24 14:11 | 28.00484 | 102.18501 | 5090 ft | 5 kts | 339° |
| 2026-04-24 14:11 | 28.00504 | 102.18414 | 5091 ft | 9 kts | 268° |
| 2026-04-24 14:12 | 28.00472 | 102.18371 | 5091 ft | 4 kts | 190° |
| 2026-04-24 14:12 | 28.00461 | 102.18372 | 5091 ft | 0 kts | 178° |
| 2026-04-24 14:12 | 28.00440 | 102.18372 | 5091 ft | 21 kts | 178° |
| 2026-04-24 14:12 | 28.00026 | 102.18390 | 5092 ft | 97 kts | 176° |
| 2026-04-24 14:13 | 27.99134 | 102.18425 | 5092 ft | 157 kts | 178° |
| 2026-04-24 14:13 | 27.97911 | 102.18464 | 5107 ft | 191 kts | 177° |
| 2026-04-24 14:13 | 27.96534 | 102.18472 | 5515 ft | 199 kts | 175° |
| 2026-04-24 14:13 | 27.95204 | 102.18531 | 6294 ft | 192 kts | 170° |
| 2026-04-24 14:14 | 27.93867 | 102.18634 | 6914 ft | 193 kts | 169° |
| 2026-04-24 14:14 | 27.92534 | 102.18735 | 7476 ft | 195 kts | 169° |
| 2026-04-24 14:14 | 27.89761 | 102.18769 | 8383 ft | 214 kts | 184° |
| 2026-04-24 14:15 | 27.88262 | 102.18288 | 8545 ft | 233 kts | 192° |
| 2026-04-24 14:15 | 27.86680 | 102.17685 | 8756 ft | 242 kts | 186° |
| 2026-04-24 14:15 | 27.85083 | 102.17717 | 9310 ft | 224 kts | 155° |
| 2026-04-24 14:15 | 27.83820 | 102.18621 | 9785 ft | 212 kts | 127° |
| 2026-04-24 14:16 | 27.82898 | 102.19921 | 10263 ft | 213 kts | 122° |
| 2026-04-24 14:16 | 27.81992 | 102.21258 | 10755 ft | 215 kts | 122° |
| 2026-04-24 14:16 | 27.81066 | 102.22583 | 11245 ft | 215 kts | 121° |
| 2026-04-24 14:17 | 27.79737 | 102.25685 | 11721 ft | 231 kts | 99° |
| 2026-04-24 14:17 | 27.79618 | 102.27546 | 11845 ft | 247 kts | 84° |
| 2026-04-24 14:17 | 27.80858 | 102.31533 | 12147 ft | 295 kts | 65° |
| 2026-04-24 14:18 | 27.81806 | 102.33648 | 12297 ft | 318 kts | 65° |
| 2026-04-24 14:18 | 27.82866 | 102.35974 | 12610 ft | 332 kts | 64° |
| 2026-04-24 14:18 | 27.83930 | 102.38309 | 13275 ft | 337 kts | 65° |
| 2026-04-24 14:18 | 27.85000 | 102.40669 | 14051 ft | 338 kts | 64° |
| 2026-04-24 14:19 | 27.86062 | 102.43027 | 14805 ft | 337 kts | 64° |
| 2026-04-24 14:19 | 27.87120 | 102.45381 | 15579 ft | 335 kts | 64° |
| 2026-04-24 14:19 | 27.88176 | 102.47740 | 16279 ft | 336 kts | 63° |
| 2026-04-24 14:19 | 27.89230 | 102.50096 | 17038 ft | 336 kts | 62° |
| 2026-04-24 14:20 | 27.90290 | 102.52456 | 17738 ft | 337 kts | 61° |
| 2026-04-24 14:20 | 27.91355 | 102.54822 | 18398 ft | 339 kts | 60° |
| 2026-04-24 14:20 | 27.92430 | 102.57204 | 19088 ft | 341 kts | 59° |
| 2026-04-24 14:20 | 27.93510 | 102.59599 | 19735 ft | 343 kts | 58° |
| 2026-04-24 14:21 | 27.94600 | 102.62015 | 20335 ft | 346 kts | 58° |
| 2026-04-24 14:21 | 27.95696 | 102.64445 | 20902 ft | 349 kts | 57° |
| 2026-04-24 14:21 | 27.96801 | 102.66897 | 21403 ft | 352 kts | 56° |
| 2026-04-24 14:21 | 27.97918 | 102.69376 | 21875 ft | 355 kts | 56° |
| 2026-04-24 14:22 | 27.99044 | 102.71879 | 22379 ft | 359 kts | 56° |
| 2026-04-24 14:22 | 28.00179 | 102.74404 | 22849 ft | 361 kts | 56° |
| 2026-04-24 14:22 | 28.02459 | 102.79484 | 23794 ft | 368 kts | 56° |
| 2026-04-24 14:23 | 28.03623 | 102.82078 | 24245 ft | 371 kts | 56° |
| 2026-04-24 14:23 | 28.04795 | 102.84693 | 24703 ft | 374 kts | 57° |
| 2026-04-24 14:23 | 28.05975 | 102.87326 | 25148 ft | 377 kts | 57° |
| 2026-04-24 14:23 | 28.07166 | 102.89985 | 25581 ft | 380 kts | 57° |
| 2026-04-24 14:24 | 28.08363 | 102.92662 | 26067 ft | 380 kts | 57° |
| 2026-04-24 14:24 | 28.09558 | 102.95348 | 26697 ft | 374 kts | 57° |
| 2026-04-24 14:24 | 28.10707 | 102.97929 | 27385 ft | 370 kts | 57° |
| 2026-04-24 14:24 | 28.11860 | 103.00519 | 28017 ft | 366 kts | 57° |
| 2026-04-24 14:25 | 28.13002 | 103.03079 | 28625 ft | 362 kts | 57° |
| 2026-04-24 14:25 | 28.14128 | 103.05607 | 29288 ft | 357 kts | 56° |
| 2026-04-24 14:25 | 28.15243 | 103.08110 | 29835 ft | 355 kts | 56° |
| 2026-04-24 14:25 | 28.16353 | 103.10600 | 30334 ft | 354 kts | 56° |
| 2026-04-24 14:26 | 28.17463 | 103.13087 | 30804 ft | 353 kts | 56° |
| 2026-04-24 14:26 | 28.18570 | 103.15572 | 31261 ft | 352 kts | 56° |
| 2026-04-24 14:26 | 28.19671 | 103.18047 | 31698 ft | 351 kts | 56° |
| 2026-04-24 14:26 | 28.20772 | 103.20524 | 32039 ft | 351 kts | 56° |
| 2026-04-24 14:27 | 28.21868 | 103.22992 | 32451 ft | 350 kts | 56° |
| 2026-04-24 14:27 | 28.22976 | 103.25488 | 32854 ft | 349 kts | 56° |
| 2026-04-24 14:27 | 28.24066 | 103.27945 | 33239 ft | 348 kts | 56° |
| 2026-04-24 14:27 | 28.25151 | 103.30395 | 33620 ft | 348 kts | 56° |
| 2026-04-24 14:28 | 28.26221 | 103.32810 | 33922 ft | 347 kts | 56° |
| 2026-04-24 14:28 | 28.27313 | 103.35289 | 34279 ft | 346 kts | 57° |
| 2026-04-24 14:28 | 28.28362 | 103.37685 | 34657 ft | 342 kts | 56° |
| 2026-04-24 14:28 | 28.29419 | 103.40097 | 34948 ft | 341 kts | 57° |
| 2026-04-24 14:29 | 28.30487 | 103.42522 | 35005 ft | 346 kts | 56° |
| 2026-04-24 14:29 | 28.32654 | 103.47435 | 35035 ft | 350 kts | 57° |
| 2026-04-24 14:30 | 28.34455 | 103.51527 | 35022 ft | 346 kts | 56° |
| 2026-04-24 14:30 | 28.36961 | 103.57221 | 35028 ft | 345 kts | 56° |
| 2026-04-24 14:31 | 28.39105 | 103.62094 | 35030 ft | 345 kts | 56° |
| 2026-04-24 14:31 | 28.41247 | 103.66967 | 35031 ft | 344 kts | 57° |
| 2026-04-24 14:32 | 28.43388 | 103.71847 | 35023 ft | 345 kts | 57° |
| 2026-04-24 14:32 | 28.45525 | 103.76723 | 35022 ft | 345 kts | 57° |
| 2026-04-24 14:33 | 28.47660 | 103.81601 | 35038 ft | 346 kts | 56° |
| 2026-04-24 14:33 | 28.49807 | 103.86506 | 35024 ft | 345 kts | 57° |
| 2026-04-24 14:34 | 28.51940 | 103.91396 | 35037 ft | 345 kts | 57° |
| 2026-04-24 14:34 | 28.54067 | 103.96276 | 35029 ft | 345 kts | 57° |
| 2026-04-24 14:35 | 28.56195 | 104.01157 | 35039 ft | 345 kts | 57° |
| 2026-04-24 14:35 | 28.58325 | 104.06073 | 35031 ft | 346 kts | 57° |
| 2026-04-24 14:36 | 28.60425 | 104.10955 | 35019 ft | 346 kts | 57° |
| 2026-04-24 14:36 | 28.62544 | 104.15858 | 35026 ft | 345 kts | 56° |
| 2026-04-24 14:37 | 28.64989 | 104.20479 | 35030 ft | 337 kts | 47° |
| 2026-04-24 14:37 | 28.68250 | 104.24239 | 35025 ft | 332 kts | 35° |
| 2026-04-24 14:38 | 28.72190 | 104.26933 | 35029 ft | 330 kts | 24° |
| 2026-04-24 14:38 | 28.76583 | 104.28490 | 35029 ft | 333 kts | 13° |
| 2026-04-24 14:39 | 28.81224 | 104.28842 | 35030 ft | 338 kts | 3° |
| 2026-04-24 14:39 | 28.85942 | 104.28551 | 35025 ft | 340 kts | 2° |
| 2026-04-24 14:40 | 28.90657 | 104.28234 | 35027 ft | 339 kts | 2° |
| 2026-04-24 14:40 | 28.95368 | 104.27951 | 35029 ft | 339 kts | 2° |
| 2026-04-24 14:41 | 29.00080 | 104.27682 | 35028 ft | 339 kts | 2° |
| 2026-04-24 14:41 | 29.04792 | 104.27419 | 35029 ft | 339 kts | 2° |
| 2026-04-24 14:42 | 29.08709 | 104.27201 | 35029 ft | 339 kts | 2° |
| 2026-04-24 14:42 | 29.14215 | 104.26895 | 35029 ft | 339 kts | 2° |
| 2026-04-24 14:43 | 29.18926 | 104.26633 | 35027 ft | 339 kts | 2° |
| 2026-04-24 14:43 | 29.23639 | 104.26371 | 35028 ft | 339 kts | 2° |
| 2026-04-24 14:44 | 29.28333 | 104.26329 | 35030 ft | 335 kts | 9° |
| 2026-04-24 14:44 | 29.32907 | 104.27029 | 35028 ft | 334 kts | 12° |
| 2026-04-24 14:45 | 29.37498 | 104.27841 | 35030 ft | 334 kts | 12° |
| 2026-04-24 14:45 | 29.42086 | 104.28641 | 35030 ft | 334 kts | 12° |
| 2026-04-24 14:46 | 29.46679 | 104.29430 | 35027 ft | 334 kts | 12° |
| 2026-04-24 14:46 | 29.51276 | 104.30217 | 35026 ft | 334 kts | 12° |
| 2026-04-24 14:47 | 29.55094 | 104.30870 | 35027 ft | 334 kts | 12° |
| 2026-04-24 14:47 | 29.60461 | 104.31788 | 35027 ft | 334 kts | 12° |
| 2026-04-24 14:48 | 29.65054 | 104.32574 | 35029 ft | 334 kts | 12° |
| 2026-04-24 14:48 | 29.69647 | 104.33360 | 35029 ft | 334 kts | 12° |
| 2026-04-24 14:49 | 29.74238 | 104.34148 | 35029 ft | 334 kts | 12° |
| 2026-04-24 14:49 | 29.78834 | 104.34936 | 35030 ft | 334 kts | 12° |
| 2026-04-24 14:50 | 29.83429 | 104.35726 | 35029 ft | 334 kts | 12° |
| 2026-04-24 14:50 | 29.88023 | 104.36516 | 35029 ft | 334 kts | 12° |
| 2026-04-24 14:51 | 29.92616 | 104.37306 | 35028 ft | 334 kts | 12° |
| 2026-04-24 14:51 | 29.97210 | 104.38097 | 35029 ft | 334 kts | 12° |
| 2026-04-24 14:52 | 30.01807 | 104.38890 | 35029 ft | 334 kts | 12° |
| 2026-04-24 14:52 | 30.06367 | 104.39677 | 35029 ft | 334 kts | 12° |
| 2026-04-24 14:53 | 30.10959 | 104.40471 | 35029 ft | 334 kts | 12° |
| 2026-04-24 14:53 | 30.15553 | 104.41272 | 35029 ft | 334 kts | 12° |
| 2026-04-24 14:54 | 30.20142 | 104.42076 | 35028 ft | 334 kts | 12° |
| 2026-04-24 14:54 | 30.24734 | 104.42881 | 35029 ft | 334 kts | 12° |
| 2026-04-24 14:55 | 30.28551 | 104.43549 | 35028 ft | 334 kts | 12° |
| 2026-04-24 14:55 | 30.33918 | 104.44491 | 35029 ft | 334 kts | 12° |
| 2026-04-24 14:56 | 30.38508 | 104.45296 | 35030 ft | 334 kts | 12° |
| 2026-04-24 14:56 | 30.43099 | 104.46103 | 35029 ft | 334 kts | 12° |
| 2026-04-24 14:57 | 30.46913 | 104.46774 | 35029 ft | 334 kts | 12° |
| 2026-04-24 14:57 | 30.52189 | 104.48102 | 35033 ft | 331 kts | 20° |
| 2026-04-24 14:58 | 30.56299 | 104.50383 | 35025 ft | 331 kts | 32° |
| 2026-04-24 14:58 | 30.59852 | 104.53792 | 35030 ft | 335 kts | 43° |
| 2026-04-24 14:59 | 30.62644 | 104.58150 | 35030 ft | 342 kts | 54° |
| 2026-04-24 14:59 | 30.64282 | 104.62441 | 35029 ft | 350 kts | 63° |
| 2026-04-24 15:00 | 30.65906 | 104.68783 | 35029 ft | 353 kts | 65° |
| 2026-04-24 15:00 | 30.67038 | 104.73381 | 35031 ft | 353 kts | 65° |
| 2026-04-24 15:01 | 30.68411 | 104.78850 | 35027 ft | 353 kts | 65° |
| 2026-04-24 15:01 | 30.69799 | 104.84315 | 35030 ft | 353 kts | 65° |
| 2026-04-24 15:02 | 30.71189 | 104.89782 | 35027 ft | 353 kts | 65° |
| 2026-04-24 15:02 | 30.72580 | 104.95254 | 35027 ft | 353 kts | 65° |
| 2026-04-24 15:03 | 30.73967 | 105.00724 | 35033 ft | 353 kts | 65° |
| 2026-04-24 15:03 | 30.75343 | 105.06160 | 35029 ft | 353 kts | 65° |
| 2026-04-24 15:04 | 30.76726 | 105.11633 | 35031 ft | 352 kts | 65° |
| 2026-04-24 15:04 | 30.78105 | 105.17101 | 35028 ft | 352 kts | 65° |
| 2026-04-24 15:05 | 30.79483 | 105.22575 | 35026 ft | 353 kts | 65° |
| 2026-04-24 15:05 | 30.80858 | 105.28047 | 35032 ft | 353 kts | 65° |
| 2026-04-24 15:06 | 30.82234 | 105.33533 | 35026 ft | 353 kts | 65° |
| 2026-04-24 15:06 | 30.83606 | 105.39016 | 35032 ft | 353 kts | 65° |
| 2026-04-24 15:07 | 30.84892 | 105.44545 | 35027 ft | 355 kts | 67° |
| 2026-04-24 15:07 | 30.86069 | 105.50124 | 35028 ft | 355 kts | 68° |
| 2026-04-24 15:08 | 30.87244 | 105.55709 | 35030 ft | 355 kts | 67° |
| 2026-04-24 15:08 | 30.88425 | 105.61298 | 35031 ft | 355 kts | 67° |
| 2026-04-24 15:09 | 30.89605 | 105.66881 | 35027 ft | 355 kts | 67° |
| 2026-04-24 15:09 | 30.90785 | 105.72468 | 35030 ft | 355 kts | 67° |
| 2026-04-24 15:10 | 30.91963 | 105.78055 | 35029 ft | 355 kts | 67° |
| 2026-04-24 15:10 | 30.93139 | 105.83646 | 35027 ft | 356 kts | 68° |
| 2026-04-24 15:11 | 30.94312 | 105.89237 | 35029 ft | 355 kts | 68° |
| 2026-04-24 15:11 | 30.95482 | 105.94827 | 35032 ft | 356 kts | 68° |
| 2026-04-24 15:12 | 30.96636 | 106.00430 | 35031 ft | 357 kts | 70° |
| 2026-04-24 15:12 | 30.97386 | 106.09222 | 35028 ft | 366 kts | 76° |
| 2026-04-24 15:13 | 30.97696 | 106.15105 | 35031 ft | 366 kts | 76° |
| 2026-04-24 15:13 | 30.98026 | 106.21058 | 35030 ft | 365 kts | 76° |
| 2026-04-24 15:14 | 30.98363 | 106.26930 | 35031 ft | 366 kts | 76° |
| 2026-04-24 15:14 | 30.98704 | 106.32844 | 35030 ft | 366 kts | 76° |
| 2026-04-24 15:15 | 30.99043 | 106.38757 | 35029 ft | 366 kts | 76° |
| 2026-04-24 15:15 | 30.99379 | 106.44675 | 35031 ft | 366 kts | 76° |
| 2026-04-24 15:16 | 30.99714 | 106.50594 | 35030 ft | 366 kts | 76° |
| 2026-04-24 15:16 | 31.00045 | 106.56513 | 35031 ft | 366 kts | 76° |
| 2026-04-24 15:17 | 31.00372 | 106.62427 | 35026 ft | 366 kts | 76° |
| 2026-04-24 15:17 | 31.00699 | 106.68354 | 35031 ft | 366 kts | 76° |
| 2026-04-24 15:18 | 31.01022 | 106.74280 | 35026 ft | 366 kts | 76° |
| 2026-04-24 15:18 | 31.01342 | 106.80198 | 35027 ft | 366 kts | 76° |
| 2026-04-24 15:19 | 31.01660 | 106.86114 | 35029 ft | 366 kts | 76° |
| 2026-04-24 15:19 | 31.01975 | 106.92036 | 35031 ft | 366 kts | 76° |
| 2026-04-24 15:20 | 31.02286 | 106.97963 | 35030 ft | 367 kts | 77° |
| 2026-04-24 15:20 | 31.02574 | 107.03894 | 35030 ft | 366 kts | 77° |
| 2026-04-24 15:21 | 31.02868 | 107.09828 | 35028 ft | 367 kts | 77° |
| 2026-04-24 15:21 | 31.03168 | 107.15756 | 35031 ft | 366 kts | 77° |
| 2026-04-24 15:22 | 31.03469 | 107.21685 | 35027 ft | 366 kts | 76° |
| 2026-04-24 15:23 | 31.03915 | 107.30568 | 35030 ft | 366 kts | 77° |
| 2026-04-24 15:23 | 31.04356 | 107.39464 | 35029 ft | 366 kts | 77° |
| 2026-04-24 15:25 | 31.04840 | 107.53337 | 35025 ft | 368 kts | 78° |
| 2026-04-24 15:26 | 31.05160 | 107.69226 | 35029 ft | 368 kts | 78° |
| 2026-04-24 15:27 | 31.05501 | 107.87161 | 35031 ft | 370 kts | 78° |
| 2026-04-24 15:29 | 31.05817 | 108.05083 | 35030 ft | 368 kts | 78° |
| 2026-04-24 15:31 | 31.06159 | 108.26010 | 35033 ft | 369 kts | 79° |
| 2026-04-24 15:33 | 31.06507 | 108.49933 | 35033 ft | 369 kts | 79° |
| 2026-04-24 15:34 | 31.06700 | 108.64846 | 35028 ft | 369 kts | 79° |
| 2026-04-24 15:35 | 31.06841 | 108.79823 | 35028 ft | 369 kts | 79° |
| 2026-04-24 15:36 | 31.06905 | 108.85806 | 35030 ft | 369 kts | 79° |
| 2026-04-24 15:36 | 31.07001 | 108.94796 | 35024 ft | 369 kts | 79° |
| 2026-04-24 15:37 | 31.07060 | 109.00788 | 35026 ft | 370 kts | 79° |
| 2026-04-24 15:37 | 31.07115 | 109.06776 | 35034 ft | 369 kts | 79° |
| 2026-04-24 15:38 | 31.07170 | 109.12775 | 35033 ft | 370 kts | 79° |
| 2026-04-24 15:38 | 31.07221 | 109.18766 | 35027 ft | 369 kts | 79° |
| 2026-04-24 15:39 | 31.07269 | 109.24758 | 35026 ft | 369 kts | 79° |
| 2026-04-24 15:39 | 31.07315 | 109.30750 | 35025 ft | 370 kts | 79° |
| 2026-04-24 15:40 | 31.07358 | 109.36746 | 35025 ft | 370 kts | 79° |
| 2026-04-24 15:40 | 31.07399 | 109.42704 | 35041 ft | 371 kts | 79° |
| 2026-04-24 15:41 | 31.07435 | 109.48712 | 35036 ft | 370 kts | 79° |
| 2026-04-24 15:41 | 31.07470 | 109.54724 | 35035 ft | 371 kts | 79° |
| 2026-04-24 15:42 | 31.07500 | 109.60744 | 35027 ft | 370 kts | 79° |
| 2026-04-24 15:42 | 31.07507 | 109.66750 | 35027 ft | 370 kts | 79° |
| 2026-04-24 15:43 | 31.06937 | 109.72808 | 35028 ft | 387 kts | 94° |
| 2026-04-24 15:43 | 31.05292 | 109.78874 | 35025 ft | 395 kts | 97° |
| 2026-04-24 15:44 | 31.03504 | 109.84934 | 35032 ft | 395 kts | 97° |
| 2026-04-24 15:44 | 31.02053 | 109.89963 | 35029 ft | 393 kts | 97° |
| 2026-04-24 15:45 | 31.00051 | 109.97040 | 35024 ft | 394 kts | 97° |
| 2026-04-24 15:45 | 30.98345 | 110.03090 | 35027 ft | 393 kts | 97° |
| 2026-04-24 15:46 | 30.96926 | 110.08122 | 35026 ft | 393 kts | 97° |
| 2026-04-24 15:46 | 30.95214 | 110.14175 | 35029 ft | 393 kts | 97° |
| 2026-04-24 15:47 | 30.93500 | 110.20230 | 35032 ft | 394 kts | 97° |
| 2026-04-24 15:47 | 30.91782 | 110.26279 | 35029 ft | 394 kts | 97° |
| 2026-04-24 15:48 | 30.90060 | 110.32329 | 35030 ft | 393 kts | 97° |
| 2026-04-24 15:48 | 30.88337 | 110.38377 | 35031 ft | 393 kts | 97° |
| 2026-04-24 15:49 | 30.86612 | 110.44411 | 35025 ft | 392 kts | 97° |
| 2026-04-24 15:49 | 30.84887 | 110.50446 | 35023 ft | 393 kts | 97° |
| 2026-04-24 15:50 | 30.83153 | 110.56491 | 35027 ft | 394 kts | 97° |
| 2026-04-24 15:50 | 30.81416 | 110.62533 | 35027 ft | 394 kts | 97° |
| 2026-04-24 15:51 | 30.79656 | 110.68568 | 35019 ft | 392 kts | 97° |
| 2026-04-24 15:51 | 30.77906 | 110.74587 | 35024 ft | 394 kts | 97° |
| 2026-04-24 15:52 | 30.76159 | 110.80621 | 35036 ft | 394 kts | 97° |
| 2026-04-24 15:52 | 30.74409 | 110.86658 | 35027 ft | 394 kts | 97° |
| 2026-04-24 15:53 | 30.72657 | 110.92696 | 35031 ft | 394 kts | 97° |
| 2026-04-24 15:53 | 30.70914 | 110.98689 | 35035 ft | 394 kts | 97° |
| 2026-04-24 15:54 | 30.69157 | 111.04721 | 35031 ft | 394 kts | 97° |
| 2026-04-24 15:54 | 30.67397 | 111.10747 | 35022 ft | 394 kts | 97° |
| 2026-04-24 15:55 | 30.65635 | 111.16774 | 35033 ft | 394 kts | 97° |
| 2026-04-24 15:55 | 30.63869 | 111.22800 | 35025 ft | 394 kts | 97° |
| 2026-04-24 15:56 | 30.62740 | 111.28843 | 35031 ft | 370 kts | 79° |
| 2026-04-24 15:56 | 30.63298 | 111.34640 | 35026 ft | 359 kts | 71° |
| 2026-04-24 15:57 | 30.64167 | 111.40344 | 35030 ft | 359 kts | 71° |
| 2026-04-24 15:57 | 30.64986 | 111.46072 | 35030 ft | 360 kts | 72° |
| 2026-04-24 15:58 | 30.65495 | 111.51915 | 35028 ft | 366 kts | 76° |
| 2026-04-24 15:58 | 30.65796 | 111.57815 | 35027 ft | 366 kts | 77° |
| 2026-04-24 15:59 | 30.66085 | 111.63724 | 35028 ft | 366 kts | 77° |
| 2026-04-24 15:59 | 30.66380 | 111.69629 | 35027 ft | 366 kts | 77° |
| 2026-04-24 16:00 | 30.66679 | 111.75532 | 35031 ft | 366 kts | 77° |
| 2026-04-24 16:00 | 30.66979 | 111.81433 | 35026 ft | 366 kts | 77° |
| 2026-04-24 16:01 | 30.67278 | 111.87339 | 35029 ft | 366 kts | 77° |
| 2026-04-24 16:01 | 30.67574 | 111.93247 | 35030 ft | 366 kts | 77° |
| 2026-04-24 16:02 | 30.67915 | 111.99141 | 35028 ft | 365 kts | 76° |
| 2026-04-24 16:02 | 30.68316 | 112.05017 | 35027 ft | 365 kts | 75° |
| 2026-04-24 16:03 | 30.68723 | 112.10891 | 35030 ft | 365 kts | 76° |
| 2026-04-24 16:03 | 30.69127 | 112.16768 | 35030 ft | 365 kts | 76° |
| 2026-04-24 16:04 | 30.69527 | 112.22642 | 35029 ft | 365 kts | 76° |
| 2026-04-24 16:04 | 30.69925 | 112.28528 | 35030 ft | 365 kts | 76° |
| 2026-04-24 16:05 | 30.70515 | 112.37347 | 35029 ft | 365 kts | 76° |
| 2026-04-24 16:06 | 30.71100 | 112.46171 | 35030 ft | 365 kts | 76° |
| 2026-04-24 16:07 | 30.71679 | 112.54993 | 35026 ft | 365 kts | 76° |
| 2026-04-24 16:07 | 30.72249 | 112.63781 | 35028 ft | 365 kts | 76° |
| 2026-04-24 16:08 | 30.72816 | 112.72612 | 35030 ft | 365 kts | 76° |
| 2026-04-24 16:09 | 30.73377 | 112.81442 | 35030 ft | 365 kts | 76° |
| 2026-04-24 16:09 | 30.73748 | 112.87330 | 35029 ft | 365 kts | 76° |
| 2026-04-24 16:11 | 30.74630 | 113.02065 | 35027 ft | 366 kts | 76° |
| 2026-04-24 16:11 | 30.74985 | 113.07960 | 35027 ft | 365 kts | 76° |
| 2026-04-24 16:12 | 30.75442 | 113.16821 | 35028 ft | 368 kts | 78° |
| 2026-04-24 16:13 | 30.75671 | 113.25611 | 35028 ft | 368 kts | 78° |
| 2026-04-24 16:14 | 30.75969 | 113.37410 | 35030 ft | 368 kts | 78° |
| 2026-04-24 16:14 | 30.76194 | 113.46331 | 35029 ft | 368 kts | 78° |
| 2026-04-24 16:15 | 30.76409 | 113.55119 | 35028 ft | 368 kts | 78° |
| 2026-04-24 16:16 | 30.76620 | 113.63947 | 35030 ft | 368 kts | 78° |
| 2026-04-24 16:17 | 30.76962 | 113.78829 | 35028 ft | 368 kts | 78° |
| 2026-04-24 16:18 | 30.77219 | 113.90550 | 35030 ft | 368 kts | 78° |
| 2026-04-24 16:19 | 30.77405 | 113.99386 | 35030 ft | 368 kts | 78° |
| 2026-04-24 16:20 | 30.77658 | 114.07232 | 35030 ft | 367 kts | 77° |
| 2026-04-24 16:20 | 30.78058 | 114.17079 | 35030 ft | 367 kts | 77° |
| 2026-04-24 16:21 | 30.78926 | 114.22769 | 35032 ft | 350 kts | 63° |
| 2026-04-24 16:21 | 30.79733 | 114.25335 | 35029 ft | 349 kts | 61° |
| 2026-04-24 16:22 | 30.81488 | 114.30488 | 35029 ft | 349 kts | 61° |
| 2026-04-24 16:22 | 30.84099 | 114.38393 | 35029 ft | 349 kts | 61° |
| 2026-04-24 16:23 | 30.85811 | 114.43679 | 35028 ft | 349 kts | 62° |
| 2026-04-24 16:24 | 30.88355 | 114.51524 | 35027 ft | 349 kts | 61° |
| 2026-04-24 16:24 | 30.90073 | 114.56811 | 35027 ft | 349 kts | 61° |
| 2026-04-24 16:25 | 30.91762 | 114.62015 | 35030 ft | 349 kts | 61° |
| 2026-04-24 16:25 | 30.93477 | 114.67303 | 35030 ft | 349 kts | 62° |
| 2026-04-24 16:26 | 30.96044 | 114.75239 | 35029 ft | 349 kts | 62° |
| 2026-04-24 16:27 | 30.98608 | 114.83184 | 35027 ft | 349 kts | 62° |
| 2026-04-24 16:27 | 31.00315 | 114.88483 | 35028 ft | 349 kts | 62° |
| 2026-04-24 16:28 | 31.02019 | 114.93789 | 35027 ft | 349 kts | 62° |
| 2026-04-24 16:28 | 31.04559 | 115.01752 | 35028 ft | 349 kts | 62° |
| 2026-04-24 16:29 | 31.06255 | 115.07064 | 35029 ft | 349 kts | 62° |
| 2026-04-24 16:30 | 31.09636 | 115.17652 | 35032 ft | 349 kts | 62° |
| 2026-04-24 16:30 | 31.11315 | 115.22939 | 35029 ft | 350 kts | 62° |
| 2026-04-24 16:31 | 31.12994 | 115.28262 | 35029 ft | 349 kts | 62° |
| 2026-04-24 16:31 | 31.14705 | 115.33565 | 35027 ft | 349 kts | 61° |
| 2026-04-24 16:32 | 31.16423 | 115.38862 | 35028 ft | 349 kts | 61° |
| 2026-04-24 16:32 | 31.18140 | 115.44156 | 35030 ft | 349 kts | 61° |
| 2026-04-24 16:33 | 31.19857 | 115.49465 | 35028 ft | 349 kts | 62° |
| 2026-04-24 16:33 | 31.21282 | 115.53876 | 35033 ft | 349 kts | 62° |
| 2026-04-24 16:34 | 31.22993 | 115.59183 | 35021 ft | 349 kts | 62° |
| 2026-04-24 16:34 | 31.24721 | 115.64547 | 35030 ft | 350 kts | 62° |
| 2026-04-24 16:35 | 31.26423 | 115.69843 | 35026 ft | 350 kts | 62° |
| 2026-04-24 16:35 | 31.28131 | 115.75172 | 35027 ft | 350 kts | 62° |
| 2026-04-24 16:36 | 31.29828 | 115.80492 | 35029 ft | 349 kts | 62° |
| 2026-04-24 16:36 | 31.31520 | 115.85819 | 35025 ft | 349 kts | 62° |
| 2026-04-24 16:37 | 31.33232 | 115.91133 | 35025 ft | 349 kts | 61° |
| 2026-04-24 16:37 | 31.34962 | 115.96436 | 35030 ft | 349 kts | 61° |
| 2026-04-24 16:38 | 31.36695 | 116.01743 | 35025 ft | 349 kts | 61° |
| 2026-04-24 16:38 | 31.38428 | 116.07059 | 35026 ft | 349 kts | 61° |
| 2026-04-24 16:39 | 31.40161 | 116.12385 | 35030 ft | 350 kts | 61° |
| 2026-04-24 16:39 | 31.41887 | 116.17702 | 35027 ft | 349 kts | 61° |
| 2026-04-24 16:40 | 31.43610 | 116.23017 | 35029 ft | 349 kts | 61° |
| 2026-04-24 16:40 | 31.45331 | 116.28333 | 35029 ft | 349 kts | 61° |
| 2026-04-24 16:41 | 31.47051 | 116.33654 | 35028 ft | 349 kts | 61° |
| 2026-04-24 16:41 | 31.48769 | 116.38979 | 35029 ft | 349 kts | 61° |
| 2026-04-24 16:42 | 31.50483 | 116.44301 | 35030 ft | 349 kts | 62° |
| 2026-04-24 16:42 | 31.52197 | 116.49630 | 35029 ft | 349 kts | 62° |
| 2026-04-24 16:43 | 31.53895 | 116.54921 | 35030 ft | 349 kts | 62° |
| 2026-04-24 16:43 | 31.55604 | 116.60252 | 35032 ft | 349 kts | 62° |
| 2026-04-24 16:44 | 31.57310 | 116.65585 | 35028 ft | 349 kts | 62° |
| 2026-04-24 16:44 | 31.59015 | 116.70922 | 35030 ft | 349 kts | 62° |
| 2026-04-24 16:45 | 31.60716 | 116.76254 | 35031 ft | 349 kts | 62° |
| 2026-04-24 16:45 | 31.62405 | 116.81602 | 35029 ft | 350 kts | 62° |
| 2026-04-24 16:46 | 31.64088 | 116.86954 | 35028 ft | 349 kts | 62° |
| 2026-04-24 16:46 | 31.65777 | 116.92302 | 35027 ft | 349 kts | 62° |
| 2026-04-24 16:47 | 31.67468 | 116.97649 | 35028 ft | 349 kts | 62° |
| 2026-04-24 16:47 | 31.69145 | 117.03006 | 35029 ft | 350 kts | 62° |
| 2026-04-24 16:48 | 31.70800 | 117.08379 | 35031 ft | 350 kts | 62° |
| 2026-04-24 16:48 | 31.72452 | 117.13753 | 35028 ft | 350 kts | 62° |
| 2026-04-24 16:49 | 31.74106 | 117.19132 | 35030 ft | 350 kts | 62° |
| 2026-04-24 16:49 | 31.75756 | 117.24508 | 35030 ft | 350 kts | 62° |
| 2026-04-24 16:50 | 31.77226 | 117.29981 | 35024 ft | 358 kts | 71° |
| 2026-04-24 16:50 | 31.77412 | 117.32911 | 35029 ft | 369 kts | 81° |
| 2026-04-24 16:50 | 31.77286 | 117.35947 | 35030 ft | 375 kts | 84° |
| 2026-04-24 16:51 | 31.76791 | 117.42116 | 35030 ft | 377 kts | 85° |
| 2026-04-24 16:51 | 31.76309 | 117.48198 | 35028 ft | 376 kts | 84° |
| 2026-04-24 16:52 | 31.75866 | 117.54312 | 35028 ft | 376 kts | 84° |
| 2026-04-24 16:52 | 31.75438 | 117.60427 | 35031 ft | 375 kts | 84° |
| 2026-04-24 16:53 | 31.75013 | 117.66540 | 35031 ft | 376 kts | 84° |
| 2026-04-24 16:53 | 31.74584 | 117.72654 | 35028 ft | 376 kts | 84° |
| 2026-04-24 16:54 | 31.74153 | 117.78774 | 35027 ft | 376 kts | 84° |
| 2026-04-24 16:54 | 31.73698 | 117.85177 | 35028 ft | 376 kts | 84° |
| 2026-04-24 16:55 | 31.73260 | 117.91298 | 35029 ft | 376 kts | 84° |
| 2026-04-24 16:55 | 31.72819 | 117.97413 | 35027 ft | 376 kts | 84° |
| 2026-04-24 16:56 | 31.72376 | 118.03525 | 35031 ft | 376 kts | 84° |
| 2026-04-24 16:56 | 31.71929 | 118.09641 | 35027 ft | 376 kts | 84° |
| 2026-04-24 16:57 | 31.71484 | 118.15761 | 35029 ft | 376 kts | 84° |
| 2026-04-24 16:57 | 31.71053 | 118.21875 | 35028 ft | 376 kts | 84° |
| 2026-04-24 16:58 | 31.70625 | 118.27990 | 35029 ft | 376 kts | 84° |
| 2026-04-24 16:58 | 31.70198 | 118.34101 | 35028 ft | 376 kts | 84° |
| 2026-04-24 16:59 | 31.69767 | 118.40215 | 35030 ft | 376 kts | 84° |
| 2026-04-24 17:00 | 31.69127 | 118.49237 | 35028 ft | 376 kts | 84° |
| 2026-04-24 17:00 | 31.68469 | 118.58406 | 35029 ft | 376 kts | 84° |
| 2026-04-24 17:01 | 31.67804 | 118.67574 | 35027 ft | 376 kts | 84° |
| 2026-04-24 17:02 | 31.67133 | 118.76745 | 35030 ft | 376 kts | 84° |
| 2026-04-24 17:02 | 31.66682 | 118.82860 | 35028 ft | 376 kts | 84° |
| 2026-04-24 17:03 | 31.66000 | 118.92032 | 35029 ft | 376 kts | 84° |
| 2026-04-24 17:04 | 31.65540 | 118.98144 | 35027 ft | 376 kts | 84° |
| 2026-04-24 17:04 | 31.64901 | 119.07197 | 35030 ft | 375 kts | 83° |
| 2026-04-24 17:05 | 31.64585 | 119.13293 | 35032 ft | 374 kts | 83° |
| 2026-04-24 17:06 | 31.64172 | 119.22432 | 35029 ft | 374 kts | 82° |
| 2026-04-24 17:06 | 31.63765 | 119.31561 | 35030 ft | 374 kts | 82° |
| 2026-04-24 17:07 | 31.63537 | 119.36618 | 35030 ft | 374 kts | 82° |
| 2026-04-24 17:08 | 31.62960 | 119.48803 | 35030 ft | 374 kts | 83° |
| 2026-04-24 17:08 | 31.62670 | 119.54894 | 35030 ft | 374 kts | 83° |
| 2026-04-24 17:09 | 31.62084 | 119.67072 | 35028 ft | 374 kts | 83° |
| 2026-04-24 17:10 | 31.61523 | 119.79248 | 35028 ft | 374 kts | 82° |
| 2026-04-24 17:12 | 31.60393 | 120.03605 | 34929 ft | 374 kts | 83° |
| 2026-04-24 18:54 | 33.11590 | 131.65648 | 34927 ft | 360 kts | 72° |
| 2026-04-24 18:55 | 33.12737 | 131.74473 | 34925 ft | 361 kts | 72° |
| 2026-04-24 18:56 | 33.13503 | 131.80387 | 34927 ft | 361 kts | 72° |
| 2026-04-24 18:56 | 33.14265 | 131.86302 | 34934 ft | 361 kts | 72° |
| 2026-04-24 18:57 | 33.15025 | 131.92220 | 34928 ft | 361 kts | 72° |
| 2026-04-24 18:57 | 33.15781 | 131.98133 | 34930 ft | 361 kts | 72° |
| 2026-04-24 18:58 | 33.16535 | 132.04053 | 34928 ft | 361 kts | 72° |
| 2026-04-24 18:58 | 33.17286 | 132.09973 | 34928 ft | 361 kts | 72° |
| 2026-04-24 18:59 | 33.18023 | 132.15895 | 34928 ft | 361 kts | 72° |
| 2026-04-24 18:59 | 33.18756 | 132.21827 | 34928 ft | 361 kts | 72° |
| 2026-04-24 19:00 | 33.19494 | 132.27752 | 34928 ft | 361 kts | 72° |
| 2026-04-24 19:00 | 33.20233 | 132.33677 | 34928 ft | 361 kts | 72° |
| 2026-04-24 19:01 | 33.20965 | 132.39561 | 34930 ft | 361 kts | 72° |
| 2026-04-24 19:01 | 33.21701 | 132.45493 | 34928 ft | 361 kts | 72° |
| 2026-04-24 19:02 | 33.22315 | 132.50462 | 34928 ft | 361 kts | 72° |
| 2026-04-24 19:02 | 33.23165 | 132.57367 | 34934 ft | 361 kts | 72° |
| 2026-04-24 19:03 | 33.23884 | 132.63305 | 34927 ft | 361 kts | 72° |
| 2026-04-24 19:03 | 33.24600 | 132.69244 | 34928 ft | 361 kts | 72° |
| 2026-04-24 19:04 | 33.25317 | 132.75176 | 34932 ft | 360 kts | 72° |
| 2026-04-24 19:04 | 33.26037 | 132.81120 | 34934 ft | 363 kts | 72° |
| 2026-04-24 19:05 | 33.26754 | 132.87078 | 34928 ft | 361 kts | 72° |
| 2026-04-24 19:05 | 33.27468 | 132.93026 | 34931 ft | 361 kts | 72° |
| 2026-04-24 19:06 | 33.28177 | 132.98964 | 34925 ft | 361 kts | 72° |
| 2026-04-24 19:06 | 33.28885 | 133.04902 | 34942 ft | 363 kts | 72° |
| 2026-04-24 19:07 | 33.29583 | 133.10872 | 34929 ft | 362 kts | 72° |
| 2026-04-24 19:07 | 33.30160 | 133.15825 | 34930 ft | 362 kts | 72° |
| 2026-04-24 19:08 | 33.30976 | 133.22800 | 34925 ft | 361 kts | 72° |
| 2026-04-24 19:08 | 33.31671 | 133.28747 | 34929 ft | 361 kts | 72° |
| 2026-04-24 19:09 | 33.32364 | 133.34696 | 34928 ft | 361 kts | 72° |
| 2026-04-24 19:09 | 33.33054 | 133.40647 | 34932 ft | 361 kts | 72° |
| 2026-04-24 19:10 | 33.33742 | 133.46602 | 34928 ft | 361 kts | 72° |
| 2026-04-24 19:10 | 33.34427 | 133.52560 | 34928 ft | 361 kts | 72° |
| 2026-04-24 19:11 | 33.35109 | 133.58514 | 34928 ft | 362 kts | 72° |
| 2026-04-24 19:11 | 33.35788 | 133.64473 | 34928 ft | 362 kts | 73° |
| 2026-04-24 19:12 | 33.36464 | 133.70434 | 34928 ft | 362 kts | 73° |
| 2026-04-24 19:12 | 33.37138 | 133.76393 | 34928 ft | 362 kts | 73° |
| 2026-04-24 19:13 | 33.37695 | 133.81351 | 34928 ft | 362 kts | 73° |
| 2026-04-24 19:13 | 33.38477 | 133.88323 | 34928 ft | 362 kts | 73° |
| 2026-04-24 19:14 | 33.39142 | 133.94287 | 34928 ft | 362 kts | 73° |
| 2026-04-24 19:14 | 33.39804 | 134.00253 | 34928 ft | 362 kts | 73° |
| 2026-04-24 19:15 | 33.40454 | 134.06226 | 34931 ft | 361 kts | 73° |
| 2026-04-24 19:15 | 33.41086 | 134.12186 | 34930 ft | 361 kts | 73° |
| 2026-04-24 19:16 | 33.42050 | 134.21096 | 34919 ft | 362 kts | 73° |
| 2026-04-24 19:16 | 33.42703 | 134.27108 | 34928 ft | 362 kts | 73° |
| 2026-04-24 19:17 | 33.43349 | 134.33084 | 34934 ft | 362 kts | 73° |
| 2026-04-24 19:17 | 33.43989 | 134.39023 | 34929 ft | 362 kts | 73° |
| 2026-04-24 19:18 | 33.44631 | 134.45002 | 34928 ft | 362 kts | 73° |
| 2026-04-24 19:18 | 33.45269 | 134.50983 | 34929 ft | 362 kts | 73° |
| 2026-04-24 19:19 | 33.45895 | 134.56966 | 34928 ft | 362 kts | 73° |
| 2026-04-24 19:19 | 33.46520 | 134.62949 | 34928 ft | 362 kts | 73° |
| 2026-04-24 19:20 | 33.47147 | 134.68934 | 34928 ft | 362 kts | 73° |
| 2026-04-24 19:20 | 33.47773 | 134.74921 | 34928 ft | 362 kts | 73° |
| 2026-04-24 19:21 | 33.48398 | 134.80910 | 34928 ft | 362 kts | 73° |
| 2026-04-24 19:21 | 33.49019 | 134.86895 | 34928 ft | 362 kts | 73° |
| 2026-04-24 19:22 | 33.49638 | 134.92890 | 34928 ft | 362 kts | 73° |
| 2026-04-24 19:22 | 33.50250 | 134.98883 | 34929 ft | 363 kts | 73° |
| 2026-04-24 19:23 | 33.50853 | 135.04878 | 34929 ft | 362 kts | 73° |
| 2026-04-24 19:23 | 33.51458 | 135.10874 | 34928 ft | 362 kts | 73° |
| 2026-04-24 19:24 | 33.52063 | 135.16869 | 34928 ft | 362 kts | 73° |
| 2026-04-24 19:24 | 33.52667 | 135.22865 | 34929 ft | 363 kts | 73° |
| 2026-04-24 19:25 | 33.53268 | 135.28864 | 34928 ft | 363 kts | 73° |
| 2026-04-24 19:25 | 33.53867 | 135.34866 | 34929 ft | 363 kts | 73° |
| 2026-04-24 19:26 | 33.54462 | 135.40867 | 34935 ft | 363 kts | 73° |
| 2026-04-24 19:26 | 33.55055 | 135.46870 | 34928 ft | 363 kts | 73° |
| 2026-04-24 19:27 | 33.55646 | 135.52881 | 34927 ft | 363 kts | 73° |
| 2026-04-24 19:27 | 33.56234 | 135.58897 | 34927 ft | 364 kts | 73° |
| 2026-04-24 19:28 | 33.56817 | 135.64908 | 34930 ft | 363 kts | 74° |
| 2026-04-24 19:28 | 33.57399 | 135.70917 | 34929 ft | 363 kts | 73° |
| 2026-04-24 19:29 | 33.58264 | 135.79911 | 34929 ft | 364 kts | 74° |
| 2026-04-24 19:30 | 33.58839 | 135.85939 | 34932 ft | 363 kts | 74° |
| 2026-04-24 19:30 | 33.59409 | 135.91952 | 34928 ft | 363 kts | 74° |
| 2026-04-24 19:31 | 33.59969 | 135.97971 | 34928 ft | 363 kts | 74° |
| 2026-04-24 19:31 | 33.60512 | 136.03993 | 34929 ft | 363 kts | 74° |
| 2026-04-24 19:32 | 33.61065 | 136.10018 | 34928 ft | 363 kts | 74° |
| 2026-04-24 19:32 | 33.61622 | 136.16038 | 34929 ft | 363 kts | 74° |
| 2026-04-24 19:33 | 33.62179 | 136.22058 | 34928 ft | 363 kts | 74° |
| 2026-04-24 19:33 | 33.62732 | 136.28079 | 34928 ft | 363 kts | 74° |
| 2026-04-24 19:34 | 33.63280 | 136.34059 | 34929 ft | 363 kts | 74° |
| 2026-04-24 19:34 | 33.63828 | 136.40084 | 34929 ft | 363 kts | 74° |
| 2026-04-24 19:35 | 33.64285 | 136.45135 | 34929 ft | 363 kts | 74° |
| 2026-04-24 19:35 | 33.64916 | 136.52139 | 34929 ft | 363 kts | 74° |
| 2026-04-24 19:36 | 33.65368 | 136.57190 | 34928 ft | 363 kts | 74° |
| 2026-04-24 19:36 | 33.65905 | 136.63220 | 34929 ft | 363 kts | 74° |
| 2026-04-24 19:37 | 33.66440 | 136.69251 | 34929 ft | 363 kts | 74° |
| 2026-04-24 19:37 | 33.66967 | 136.75243 | 34928 ft | 363 kts | 74° |
| 2026-04-24 19:38 | 33.67500 | 136.81320 | 34929 ft | 363 kts | 74° |
| 2026-04-24 19:38 | 33.68022 | 136.87316 | 34929 ft | 364 kts | 74° |
| 2026-04-24 19:39 | 33.68545 | 136.93353 | 34931 ft | 364 kts | 74° |
| 2026-04-24 19:39 | 33.69046 | 136.99395 | 34929 ft | 364 kts | 75° |
| 2026-04-24 19:40 | 33.69545 | 137.05439 | 34929 ft | 364 kts | 75° |
| 2026-04-24 19:40 | 33.70052 | 137.11484 | 34929 ft | 364 kts | 75° |
| 2026-04-24 19:41 | 33.70368 | 137.17583 | 34929 ft | 368 kts | 77° |
| 2026-04-24 19:41 | 33.70549 | 137.23722 | 34929 ft | 368 kts | 78° |
| 2026-04-24 19:42 | 33.70724 | 137.29866 | 34929 ft | 368 kts | 78° |
| 2026-04-24 19:42 | 33.70903 | 137.36005 | 34929 ft | 368 kts | 78° |
| 2026-04-24 19:43 | 33.71083 | 137.42144 | 34929 ft | 368 kts | 78° |
| 2026-04-24 19:43 | 33.71261 | 137.48286 | 34929 ft | 368 kts | 78° |
| 2026-04-24 19:44 | 33.71436 | 137.54425 | 34929 ft | 368 kts | 78° |
| 2026-04-24 19:44 | 33.71608 | 137.60569 | 34929 ft | 368 kts | 78° |
| 2026-04-24 19:45 | 33.71777 | 137.66709 | 34929 ft | 368 kts | 78° |
| 2026-04-24 19:45 | 33.71943 | 137.72856 | 34929 ft | 368 kts | 78° |
| 2026-04-24 19:46 | 33.72106 | 137.79001 | 34929 ft | 368 kts | 78° |
| 2026-04-24 19:46 | 33.72265 | 137.85106 | 34929 ft | 368 kts | 78° |
| 2026-04-24 19:47 | 33.72422 | 137.91252 | 34929 ft | 368 kts | 78° |
| 2026-04-24 19:47 | 33.72575 | 137.97401 | 34929 ft | 368 kts | 78° |
| 2026-04-24 19:48 | 33.72726 | 138.03547 | 34929 ft | 368 kts | 78° |
| 2026-04-24 19:48 | 33.72945 | 138.12777 | 34929 ft | 369 kts | 78° |
| 2026-04-24 19:49 | 33.73190 | 138.25130 | 34929 ft | 369 kts | 78° |
| 2026-04-24 19:50 | 33.73455 | 138.37396 | 34929 ft | 368 kts | 78° |
| 2026-04-24 19:51 | 33.73666 | 138.46623 | 34928 ft | 366 kts | 76° |
| 2026-04-24 19:52 | 33.74775 | 138.52381 | 34928 ft | 345 kts | 57° |
| 2026-04-24 19:52 | 33.75915 | 138.54893 | 34929 ft | 341 kts | 52° |
| 2026-04-24 19:52 | 33.78439 | 138.59714 | 34932 ft | 341 kts | 52° |
| 2026-04-24 19:53 | 33.80957 | 138.64546 | 34928 ft | 341 kts | 52° |
| 2026-04-24 19:54 | 33.84674 | 138.71855 | 34927 ft | 341 kts | 52° |
| 2026-04-24 19:54 | 33.87136 | 138.76745 | 34932 ft | 342 kts | 52° |
| 2026-04-24 19:55 | 33.89178 | 138.80810 | 34932 ft | 342 kts | 52° |
| 2026-04-24 19:55 | 33.92049 | 138.86536 | 34927 ft | 342 kts | 53° |
| 2026-04-24 19:56 | 33.94501 | 138.91435 | 34927 ft | 342 kts | 53° |
| 2026-04-24 19:56 | 33.96953 | 138.96339 | 34927 ft | 342 kts | 53° |
| 2026-04-24 19:57 | 33.99402 | 139.01246 | 34927 ft | 342 kts | 53° |
| 2026-04-24 19:57 | 34.01849 | 139.06154 | 34927 ft | 342 kts | 53° |
| 2026-04-24 19:58 | 34.04296 | 139.11069 | 34927 ft | 342 kts | 53° |
| 2026-04-24 19:58 | 34.06740 | 139.15986 | 34934 ft | 342 kts | 53° |
| 2026-04-24 19:59 | 34.09182 | 139.20904 | 34931 ft | 342 kts | 53° |
| 2026-04-24 19:59 | 34.11621 | 139.25824 | 34927 ft | 342 kts | 53° |
| 2026-04-24 20:00 | 34.14049 | 139.30761 | 34930 ft | 342 kts | 53° |
| 2026-04-24 20:00 | 34.16476 | 139.35697 | 34933 ft | 342 kts | 53° |
| 2026-04-24 20:01 | 34.18907 | 139.40631 | 34927 ft | 342 kts | 53° |
| 2026-04-24 20:01 | 34.21324 | 139.45535 | 34929 ft | 342 kts | 53° |
| 2026-04-24 20:02 | 34.23361 | 139.49672 | 34932 ft | 342 kts | 53° |
| 2026-04-24 20:02 | 34.26185 | 139.55412 | 34927 ft | 342 kts | 53° |
| 2026-04-24 20:03 | 34.28613 | 139.60354 | 34932 ft | 342 kts | 53° |
| 2026-04-24 20:03 | 34.31039 | 139.65300 | 34927 ft | 342 kts | 53° |
| 2026-04-24 20:04 | 34.33464 | 139.70250 | 34932 ft | 342 kts | 53° |
| 2026-04-24 20:04 | 34.35886 | 139.75202 | 34927 ft | 342 kts | 53° |
| 2026-04-24 20:05 | 34.38307 | 139.80158 | 34927 ft | 342 kts | 53° |
| 2026-04-24 20:05 | 34.40726 | 139.85117 | 34927 ft | 342 kts | 53° |
| 2026-04-24 20:06 | 34.43142 | 139.90078 | 34927 ft | 342 kts | 53° |
| 2026-04-24 20:06 | 34.45558 | 139.95043 | 34928 ft | 342 kts | 53° |
| 2026-04-24 20:07 | 34.47563 | 139.99172 | 34927 ft | 342 kts | 53° |
| 2026-04-24 20:07 | 34.50383 | 140.04985 | 34927 ft | 342 kts | 53° |
| 2026-04-24 20:08 | 34.52792 | 140.09958 | 34930 ft | 342 kts | 53° |
| 2026-04-24 20:08 | 34.55195 | 140.14939 | 34927 ft | 342 kts | 53° |
| 2026-04-24 20:09 | 34.57584 | 140.19934 | 34927 ft | 342 kts | 53° |
| 2026-04-24 20:09 | 34.59978 | 140.24924 | 34927 ft | 342 kts | 53° |
| 2026-04-24 20:10 | 34.62378 | 140.29916 | 34927 ft | 342 kts | 53° |
| 2026-04-24 20:10 | 34.64777 | 140.34905 | 34927 ft | 342 kts | 53° |
| 2026-04-24 20:11 | 34.67175 | 140.39900 | 34930 ft | 342 kts | 53° |
| 2026-04-24 20:11 | 34.69548 | 140.44866 | 34931 ft | 343 kts | 55° |
| 2026-04-24 20:12 | 34.71244 | 140.50380 | 34932 ft | 354 kts | 66° |
| 2026-04-24 20:12 | 34.72414 | 140.56218 | 34930 ft | 356 kts | 68° |
| 2026-04-24 20:13 | 34.73560 | 140.62071 | 34934 ft | 356 kts | 68° |
| 2026-04-24 20:13 | 34.74727 | 140.67915 | 34931 ft | 356 kts | 68° |
| 2026-04-24 20:14 | 34.75903 | 140.73754 | 34928 ft | 356 kts | 67° |
| 2026-04-24 20:14 | 34.77079 | 140.79592 | 34929 ft | 356 kts | 67° |
| 2026-04-24 20:15 | 34.78255 | 140.85437 | 34933 ft | 356 kts | 68° |
| 2026-04-24 20:15 | 34.79428 | 140.91279 | 34928 ft | 356 kts | 68° |
| 2026-04-24 20:16 | 34.80597 | 140.97124 | 34928 ft | 356 kts | 68° |
| 2026-04-24 20:16 | 34.81765 | 141.02974 | 34928 ft | 356 kts | 68° |
| 2026-04-24 20:17 | 34.82930 | 141.08825 | 34928 ft | 356 kts | 68° |
| 2026-04-24 20:17 | 34.84671 | 141.17601 | 34928 ft | 356 kts | 68° |
| 2026-04-24 20:18 | 34.85822 | 141.23421 | 34928 ft | 356 kts | 68° |
| 2026-04-24 20:18 | 34.86976 | 141.29277 | 34928 ft | 356 kts | 68° |
| 2026-04-24 20:19 | 34.88129 | 141.35138 | 34933 ft | 356 kts | 68° |
| 2026-04-24 20:19 | 34.89278 | 141.40997 | 34928 ft | 356 kts | 68° |
| 2026-04-24 20:20 | 34.90418 | 141.46866 | 34931 ft | 356 kts | 68° |
| 2026-04-24 20:20 | 34.91541 | 141.52744 | 34931 ft | 356 kts | 68° |
| 2026-04-24 20:21 | 34.92672 | 141.58620 | 34930 ft | 356 kts | 68° |
| 2026-04-24 20:21 | 34.93806 | 141.64489 | 34928 ft | 356 kts | 68° |
| 2026-04-24 20:22 | 34.94942 | 141.70365 | 34928 ft | 356 kts | 68° |
| 2026-04-24 20:22 | 34.96075 | 141.76240 | 34928 ft | 356 kts | 68° |
| 2026-04-24 20:23 | 34.97205 | 141.82116 | 34928 ft | 356 kts | 68° |
| 2026-04-24 20:23 | 34.98143 | 141.87003 | 34928 ft | 356 kts | 68° |
| 2026-04-24 20:24 | 34.99268 | 141.92883 | 34928 ft | 356 kts | 68° |
| 2026-04-24 20:24 | 35.00391 | 141.98768 | 34928 ft | 356 kts | 68° |
| 2026-04-24 20:25 | 35.01511 | 142.04653 | 34931 ft | 356 kts | 68° |
| 2026-04-24 20:25 | 35.02628 | 142.10540 | 34932 ft | 356 kts | 68° |
| 2026-04-24 20:26 | 35.03743 | 142.16432 | 34928 ft | 356 kts | 68° |
| 2026-04-24 20:26 | 35.04855 | 142.22325 | 34928 ft | 356 kts | 68° |
| 2026-04-24 20:27 | 35.05964 | 142.28220 | 34928 ft | 356 kts | 68° |
| 2026-04-24 20:27 | 35.07071 | 142.34116 | 34928 ft | 356 kts | 68° |
| 2026-04-24 20:28 | 35.08174 | 142.40015 | 34928 ft | 356 kts | 68° |
| 2026-04-24 20:28 | 35.09267 | 142.45917 | 34928 ft | 357 kts | 69° |
| 2026-04-24 20:29 | 35.10343 | 142.51832 | 34928 ft | 357 kts | 68° |
| 2026-04-24 20:29 | 35.11427 | 142.57741 | 34928 ft | 357 kts | 68° |
| 2026-04-24 20:30 | 35.12509 | 142.63612 | 34931 ft | 357 kts | 68° |
| 2026-04-24 20:30 | 35.13599 | 142.69523 | 34933 ft | 357 kts | 68° |
| 2026-04-24 20:31 | 35.14693 | 142.75474 | 34930 ft | 357 kts | 68° |
| 2026-04-24 20:31 | 35.15777 | 142.81388 | 34928 ft | 357 kts | 68° |
| 2026-04-24 20:32 | 35.16858 | 142.87306 | 34928 ft | 357 kts | 68° |
| 2026-04-24 20:32 | 35.17930 | 142.93183 | 34928 ft | 357 kts | 69° |
| 2026-04-24 20:33 | 35.19005 | 142.99103 | 34928 ft | 357 kts | 69° |
| 2026-04-24 20:33 | 35.20078 | 143.05026 | 34928 ft | 357 kts | 69° |
| 2026-04-24 20:34 | 35.21148 | 143.10950 | 34928 ft | 357 kts | 69° |
| 2026-04-24 20:34 | 35.22216 | 143.16880 | 34928 ft | 357 kts | 69° |
| 2026-04-24 20:35 | 35.23281 | 143.22808 | 34928 ft | 357 kts | 69° |
| 2026-04-24 20:35 | 35.24342 | 143.28736 | 34933 ft | 357 kts | 69° |
| 2026-04-24 20:36 | 35.25298 | 143.34713 | 34928 ft | 363 kts | 74° |
| 2026-04-24 20:36 | 35.25591 | 143.40935 | 34929 ft | 368 kts | 78° |
| 2026-04-24 20:37 | 35.25725 | 143.47205 | 34929 ft | 369 kts | 78° |
| 2026-04-24 20:37 | 35.25872 | 143.53468 | 34929 ft | 368 kts | 78° |
| 2026-04-24 20:38 | 35.26034 | 143.59729 | 34929 ft | 368 kts | 78° |
| 2026-04-24 20:38 | 35.26198 | 143.65943 | 34929 ft | 368 kts | 78° |
| 2026-04-24 20:39 | 35.26362 | 143.72203 | 34929 ft | 368 kts | 78° |
| 2026-04-24 20:39 | 35.26523 | 143.78467 | 34929 ft | 368 kts | 78° |
| 2026-04-24 20:40 | 35.26680 | 143.84729 | 34929 ft | 368 kts | 78° |
| 2026-04-24 20:40 | 35.26835 | 143.90991 | 34929 ft | 368 kts | 78° |
| 2026-04-24 20:41 | 35.26986 | 143.97253 | 34929 ft | 368 kts | 78° |
| 2026-04-24 20:41 | 35.27134 | 144.03517 | 34929 ft | 368 kts | 78° |
| 2026-04-24 20:42 | 35.27278 | 144.09787 | 34929 ft | 368 kts | 78° |
| 2026-04-24 20:42 | 35.27420 | 144.16052 | 34929 ft | 368 kts | 78° |
| 2026-04-24 20:43 | 35.27558 | 144.22318 | 34929 ft | 368 kts | 78° |
| 2026-04-24 20:43 | 35.27693 | 144.28584 | 34929 ft | 368 kts | 78° |
| 2026-04-24 20:44 | 35.27824 | 144.34855 | 34929 ft | 369 kts | 78° |
| 2026-04-24 20:44 | 35.27930 | 144.41092 | 34929 ft | 369 kts | 78° |
| 2026-04-24 20:45 | 35.28037 | 144.47364 | 34929 ft | 369 kts | 78° |
| 2026-04-24 20:45 | 35.28152 | 144.53639 | 34929 ft | 369 kts | 78° |
| 2026-04-24 20:46 | 35.28270 | 144.59910 | 34929 ft | 369 kts | 78° |
| 2026-04-24 20:46 | 35.28385 | 144.66185 | 34929 ft | 369 kts | 78° |
| 2026-04-24 20:47 | 35.28497 | 144.72458 | 34929 ft | 369 kts | 78° |
| 2026-04-24 20:47 | 35.28606 | 144.78734 | 34929 ft | 369 kts | 78° |
| 2026-04-24 20:48 | 35.28712 | 144.85011 | 34929 ft | 369 kts | 78° |
| 2026-04-24 20:48 | 35.28815 | 144.91285 | 34929 ft | 369 kts | 78° |
| 2026-04-24 20:49 | 35.28941 | 144.97556 | 34929 ft | 368 kts | 78° |
| 2026-04-24 20:49 | 35.29150 | 145.03807 | 34929 ft | 367 kts | 77° |
| 2026-04-24 20:50 | 35.29376 | 145.10050 | 34929 ft | 367 kts | 77° |
| 2026-04-24 20:50 | 35.29602 | 145.16297 | 34929 ft | 367 kts | 77° |
| 2026-04-24 20:51 | 35.29823 | 145.22544 | 34929 ft | 367 kts | 77° |
| 2026-04-24 20:51 | 35.30041 | 145.28790 | 34929 ft | 367 kts | 77° |
| 2026-04-24 20:52 | 35.30255 | 145.35040 | 34935 ft | 367 kts | 77° |
| 2026-04-24 20:52 | 35.30466 | 145.41290 | 34929 ft | 367 kts | 77° |
| 2026-04-24 20:53 | 35.30674 | 145.47539 | 34929 ft | 368 kts | 77° |
| 2026-04-24 20:53 | 35.30878 | 145.53750 | 34929 ft | 368 kts | 77° |
| 2026-04-24 20:54 | 35.31079 | 145.60003 | 34929 ft | 368 kts | 78° |
| 2026-04-24 20:54 | 35.31278 | 145.66260 | 34929 ft | 368 kts | 78° |
| 2026-04-24 20:55 | 35.31473 | 145.72512 | 34929 ft | 368 kts | 78° |
| 2026-04-24 20:55 | 35.31665 | 145.78770 | 34929 ft | 368 kts | 78° |
| 2026-04-24 20:56 | 35.31854 | 145.85027 | 34929 ft | 368 kts | 78° |
| 2026-04-24 20:56 | 35.32039 | 145.91282 | 34929 ft | 368 kts | 78° |
| 2026-04-24 20:57 | 35.31992 | 145.97588 | 34930 ft | 378 kts | 86° |
| 2026-04-24 20:57 | 35.31091 | 146.03998 | 34929 ft | 384 kts | 90° |
| 2026-04-24 20:58 | 35.30031 | 146.10408 | 34929 ft | 384 kts | 90° |
| 2026-04-24 20:58 | 35.28995 | 146.16822 | 34929 ft | 384 kts | 90° |
| 2026-04-24 20:59 | 35.27979 | 146.23236 | 34929 ft | 384 kts | 90° |
| 2026-04-24 20:59 | 35.26968 | 146.29650 | 34929 ft | 384 kts | 90° |
| 2026-04-24 21:00 | 35.25956 | 146.36061 | 34929 ft | 384 kts | 90° |
| 2026-04-24 21:00 | 35.24939 | 146.42471 | 34929 ft | 384 kts | 90° |
| 2026-04-24 21:01 | 35.23920 | 146.48879 | 34932 ft | 384 kts | 90° |
| 2026-04-24 21:01 | 35.22896 | 146.55291 | 34929 ft | 384 kts | 90° |
| 2026-04-24 21:02 | 35.21869 | 146.61697 | 34929 ft | 384 kts | 90° |
| 2026-04-24 21:02 | 35.20839 | 146.68103 | 34929 ft | 384 kts | 90° |
| 2026-04-24 21:03 | 35.19806 | 146.74508 | 34929 ft | 384 kts | 90° |
| 2026-04-24 21:03 | 35.18768 | 146.80916 | 34929 ft | 384 kts | 90° |
| 2026-04-24 21:04 | 35.17733 | 146.87280 | 34929 ft | 384 kts | 90° |
| 2026-04-24 21:04 | 35.16689 | 146.93682 | 34929 ft | 384 kts | 90° |
| 2026-04-24 21:05 | 35.15624 | 147.00085 | 34929 ft | 385 kts | 90° |
| 2026-04-24 21:05 | 35.14551 | 147.06487 | 34929 ft | 385 kts | 90° |
| 2026-04-24 21:06 | 35.13487 | 147.12891 | 34929 ft | 384 kts | 90° |
| 2026-04-24 21:06 | 35.12427 | 147.19291 | 34929 ft | 384 kts | 90° |
| 2026-04-24 21:07 | 35.11365 | 147.25687 | 34929 ft | 384 kts | 90° |
| 2026-04-24 21:07 | 35.10299 | 147.32088 | 34929 ft | 385 kts | 90° |
| 2026-04-24 21:08 | 35.09230 | 147.38484 | 34929 ft | 385 kts | 90° |
| 2026-04-24 21:08 | 35.08157 | 147.44883 | 34929 ft | 385 kts | 90° |
| 2026-04-24 21:09 | 35.07081 | 147.51281 | 34929 ft | 385 kts | 90° |
| 2026-04-24 21:09 | 35.06002 | 147.57673 | 34929 ft | 385 kts | 90° |
| 2026-04-24 21:10 | 35.04919 | 147.64067 | 34929 ft | 385 kts | 90° |
| 2026-04-24 21:10 | 35.03839 | 147.70422 | 34929 ft | 385 kts | 90° |
| 2026-04-24 21:11 | 35.02750 | 147.76809 | 34929 ft | 385 kts | 90° |
| 2026-04-24 21:11 | 35.01656 | 147.83202 | 34929 ft | 385 kts | 91° |
| 2026-04-24 21:12 | 35.00737 | 147.88556 | 34929 ft | 385 kts | 91° |
| 2026-04-24 21:12 | 34.99455 | 147.95984 | 34929 ft | 385 kts | 91° |
| 2026-04-24 21:13 | 34.98517 | 148.01293 | 34929 ft | 385 kts | 91° |
| 2026-04-24 21:13 | 34.97392 | 148.07680 | 34929 ft | 385 kts | 91° |
| 2026-04-24 21:14 | 34.96088 | 148.15142 | 34932 ft | 385 kts | 91° |
| 2026-04-24 21:14 | 34.95161 | 148.20450 | 34929 ft | 385 kts | 91° |
| 2026-04-24 21:15 | 34.94043 | 148.26836 | 34929 ft | 385 kts | 91° |
| 2026-04-24 21:15 | 34.92922 | 148.33221 | 34934 ft | 385 kts | 91° |
| 2026-04-24 21:16 | 34.91798 | 148.39601 | 34929 ft | 385 kts | 91° |
| 2026-04-24 21:16 | 34.90670 | 148.45983 | 34929 ft | 385 kts | 91° |
| 2026-04-24 21:17 | 34.89538 | 148.52368 | 34932 ft | 385 kts | 91° |
| 2026-04-24 21:17 | 34.88404 | 148.58745 | 34929 ft | 385 kts | 91° |
| 2026-04-24 21:18 | 34.87265 | 148.65126 | 34929 ft | 385 kts | 91° |
| 2026-04-24 21:18 | 34.86123 | 148.71505 | 34929 ft | 386 kts | 91° |
| 2026-04-24 21:19 | 34.84978 | 148.77879 | 34929 ft | 386 kts | 91° |
| 2026-04-24 21:19 | 34.83829 | 148.84256 | 34929 ft | 386 kts | 91° |
| 2026-04-24 21:20 | 34.82099 | 148.93819 | 34929 ft | 386 kts | 91° |
| 2026-04-24 21:21 | 34.80917 | 149.00195 | 34929 ft | 386 kts | 91° |
| 2026-04-24 21:21 | 34.79738 | 149.06569 | 34929 ft | 386 kts | 91° |
| 2026-04-24 21:22 | 34.78568 | 149.12938 | 34929 ft | 386 kts | 91° |
| 2026-04-24 21:22 | 34.77398 | 149.19310 | 34929 ft | 386 kts | 91° |
| 2026-04-24 21:23 | 34.76235 | 149.25638 | 34931 ft | 386 kts | 91° |
| 2026-04-24 21:23 | 34.75059 | 149.32009 | 34929 ft | 386 kts | 91° |
| 2026-04-24 21:24 | 34.73881 | 149.38377 | 34929 ft | 386 kts | 91° |
| 2026-04-24 21:24 | 34.72699 | 149.44740 | 34929 ft | 386 kts | 91° |
| 2026-04-24 21:25 | 34.71513 | 149.51108 | 34929 ft | 386 kts | 91° |
| 2026-04-24 21:25 | 34.70325 | 149.57470 | 34929 ft | 386 kts | 91° |
| 2026-04-24 21:26 | 34.69132 | 149.63836 | 34929 ft | 386 kts | 91° |
| 2026-04-24 21:26 | 34.67936 | 149.70199 | 34929 ft | 386 kts | 92° |
| 2026-04-24 21:27 | 34.66737 | 149.76559 | 34929 ft | 386 kts | 92° |
| 2026-04-24 21:27 | 34.65534 | 149.82920 | 34929 ft | 386 kts | 92° |
| 2026-04-24 21:28 | 34.64327 | 149.89282 | 34929 ft | 386 kts | 92° |
| 2026-04-24 21:28 | 34.63107 | 149.95642 | 34929 ft | 387 kts | 92° |
| 2026-04-24 21:29 | 34.61870 | 150.01995 | 34929 ft | 387 kts | 92° |
| 2026-04-24 21:29 | 34.60650 | 150.08311 | 34929 ft | 387 kts | 92° |
| 2026-04-24 21:30 | 34.59428 | 150.14664 | 34929 ft | 387 kts | 92° |
| 2026-04-24 21:30 | 34.58203 | 150.21021 | 34929 ft | 387 kts | 92° |
| 2026-04-24 21:31 | 34.56976 | 150.27375 | 34929 ft | 387 kts | 92° |
| 2026-04-24 21:31 | 34.55746 | 150.33725 | 34929 ft | 387 kts | 92° |
| 2026-04-24 21:32 | 34.54512 | 150.40076 | 34929 ft | 387 kts | 92° |
| 2026-04-24 21:32 | 34.53275 | 150.46425 | 34929 ft | 387 kts | 92° |
| 2026-04-24 21:33 | 34.52034 | 150.52771 | 34929 ft | 387 kts | 92° |
| 2026-04-24 21:33 | 34.50790 | 150.59120 | 34929 ft | 387 kts | 92° |
| 2026-04-24 21:34 | 34.49542 | 150.65468 | 34929 ft | 387 kts | 92° |
| 2026-04-24 21:34 | 34.48291 | 150.71811 | 34929 ft | 387 kts | 92° |
| 2026-04-24 21:35 | 34.47036 | 150.78156 | 34929 ft | 387 kts | 92° |
| 2026-04-24 21:35 | 34.45778 | 150.84498 | 34929 ft | 387 kts | 92° |
| 2026-04-24 21:36 | 34.44516 | 150.90840 | 34929 ft | 387 kts | 92° |
| 2026-04-24 21:36 | 34.43227 | 150.97180 | 34929 ft | 388 kts | 92° |
| 2026-04-24 21:37 | 34.41942 | 151.03517 | 34929 ft | 387 kts | 92° |
| 2026-04-24 21:37 | 34.40665 | 151.09854 | 34929 ft | 387 kts | 92° |
| 2026-04-24 21:38 | 34.39388 | 151.16192 | 34929 ft | 387 kts | 92° |
| 2026-04-24 21:38 | 34.38108 | 151.22531 | 34929 ft | 387 kts | 92° |
| 2026-04-24 21:39 | 34.36826 | 151.28866 | 34929 ft | 387 kts | 92° |
| 2026-04-24 21:39 | 34.35541 | 151.35196 | 34929 ft | 388 kts | 92° |
| 2026-04-24 21:40 | 34.34252 | 151.41529 | 34933 ft | 388 kts | 92° |
| 2026-04-24 21:40 | 34.32959 | 151.47861 | 34929 ft | 388 kts | 92° |
| 2026-04-24 21:41 | 34.31672 | 151.54151 | 34929 ft | 388 kts | 92° |
| 2026-04-24 21:41 | 34.30373 | 151.60478 | 34929 ft | 388 kts | 92° |
| 2026-04-24 21:42 | 34.29069 | 151.66807 | 34929 ft | 388 kts | 93° |
| 2026-04-24 21:42 | 34.27764 | 151.73131 | 34929 ft | 388 kts | 93° |
| 2026-04-24 21:43 | 34.26454 | 151.79458 | 34929 ft | 388 kts | 93° |
| 2026-04-24 21:43 | 34.25141 | 151.85779 | 34929 ft | 388 kts | 93° |
| 2026-04-24 21:44 | 34.23812 | 151.92103 | 34929 ft | 388 kts | 93° |
| 2026-04-24 21:44 | 34.22469 | 151.98425 | 34929 ft | 388 kts | 93° |
| 2026-04-24 21:45 | 34.21136 | 152.04743 | 34929 ft | 388 kts | 93° |
| 2026-04-24 21:45 | 34.19807 | 152.11064 | 34932 ft | 388 kts | 93° |
| 2026-04-24 21:46 | 34.18476 | 152.17384 | 34929 ft | 388 kts | 93° |
| 2026-04-24 21:46 | 34.17143 | 152.23700 | 34929 ft | 388 kts | 93° |
| 2026-04-24 21:47 | 34.15806 | 152.30016 | 34929 ft | 388 kts | 93° |
| 2026-04-24 21:47 | 34.14473 | 152.36291 | 34929 ft | 388 kts | 93° |
| 2026-04-24 21:48 | 34.13130 | 152.42604 | 34929 ft | 388 kts | 93° |
| 2026-04-24 21:48 | 34.11782 | 152.48918 | 34929 ft | 388 kts | 93° |
| 2026-04-24 21:49 | 34.10431 | 152.55229 | 34929 ft | 388 kts | 93° |
| 2026-04-24 21:49 | 34.09077 | 152.61538 | 34929 ft | 389 kts | 93° |
| 2026-04-24 21:50 | 34.07720 | 152.67846 | 34929 ft | 389 kts | 93° |
| 2026-04-24 21:50 | 34.06358 | 152.74157 | 34929 ft | 389 kts | 93° |
| 2026-04-24 21:51 | 34.04994 | 152.80461 | 34929 ft | 389 kts | 93° |
| 2026-04-24 21:51 | 34.03623 | 152.86767 | 34929 ft | 389 kts | 94° |
| 2026-04-24 21:52 | 34.02228 | 152.93065 | 34929 ft | 389 kts | 94° |
| 2026-04-24 21:52 | 34.00839 | 152.99367 | 34929 ft | 389 kts | 94° |
| 2026-04-24 21:53 | 34.00117 | 153.05646 | 34929 ft | 370 kts | 80° |
| 2026-04-24 21:53 | 34.00261 | 153.11812 | 34929 ft | 367 kts | 77° |
| 2026-04-24 21:54 | 34.00472 | 153.17965 | 34929 ft | 368 kts | 78° |
| 2026-04-24 21:54 | 34.00643 | 153.24129 | 34929 ft | 368 kts | 78° |
| 2026-04-24 21:55 | 34.00791 | 153.30300 | 34929 ft | 368 kts | 78° |
| 2026-04-24 21:55 | 34.00929 | 153.36471 | 34929 ft | 368 kts | 78° |
| 2026-04-24 21:56 | 34.01063 | 153.42648 | 34929 ft | 368 kts | 78° |
| 2026-04-24 21:56 | 34.01193 | 153.48781 | 34929 ft | 369 kts | 78° |
| 2026-04-24 21:57 | 34.01320 | 153.54952 | 34929 ft | 369 kts | 78° |
| 2026-04-24 21:57 | 34.01445 | 153.61131 | 34929 ft | 369 kts | 78° |
| 2026-04-24 21:58 | 34.01566 | 153.67308 | 34929 ft | 369 kts | 78° |
| 2026-04-24 21:58 | 34.01685 | 153.73487 | 34929 ft | 369 kts | 78° |
| 2026-04-24 21:59 | 34.01800 | 153.79664 | 34929 ft | 369 kts | 78° |
| 2026-04-24 21:59 | 34.01912 | 153.85843 | 34929 ft | 369 kts | 78° |
| 2026-04-24 22:00 | 34.02021 | 153.92024 | 34929 ft | 369 kts | 78° |
| 2026-04-24 22:00 | 34.02127 | 153.98203 | 34929 ft | 369 kts | 78° |
| 2026-04-24 22:01 | 34.02223 | 154.04385 | 34929 ft | 369 kts | 79° |
| 2026-04-24 22:01 | 34.02285 | 154.09528 | 34929 ft | 369 kts | 79° |
| 2026-04-24 22:02 | 34.02369 | 154.15712 | 34929 ft | 369 kts | 79° |
| 2026-04-24 22:02 | 34.02459 | 154.21898 | 34929 ft | 369 kts | 79° |
| 2026-04-24 22:03 | 34.02549 | 154.28083 | 34929 ft | 369 kts | 79° |
| 2026-04-24 22:03 | 34.02651 | 154.35313 | 34929 ft | 369 kts | 79° |
| 2026-04-24 22:04 | 34.02722 | 154.40455 | 34929 ft | 369 kts | 79° |
| 2026-04-24 22:04 | 34.02803 | 154.46644 | 34929 ft | 369 kts | 79° |
| 2026-04-24 22:05 | 34.02882 | 154.52832 | 34929 ft | 369 kts | 79° |
| 2026-04-24 22:05 | 34.02957 | 154.59020 | 34929 ft | 369 kts | 79° |
| 2026-04-24 22:06 | 34.03030 | 154.65207 | 34929 ft | 369 kts | 79° |
| 2026-04-24 22:06 | 34.03099 | 154.71399 | 34929 ft | 369 kts | 79° |
| 2026-04-24 22:07 | 34.03165 | 154.77591 | 34929 ft | 369 kts | 79° |
| 2026-04-24 22:07 | 34.03228 | 154.83784 | 34929 ft | 369 kts | 79° |
| 2026-04-24 22:08 | 34.03288 | 154.89973 | 34929 ft | 369 kts | 79° |
| 2026-04-24 22:08 | 34.03345 | 154.96167 | 34929 ft | 369 kts | 79° |
| 2026-04-24 22:09 | 34.03398 | 155.02317 | 34929 ft | 370 kts | 79° |
| 2026-04-24 22:09 | 34.03426 | 155.08516 | 34929 ft | 370 kts | 79° |
| 2026-04-24 22:10 | 34.03457 | 155.14717 | 34929 ft | 370 kts | 79° |
| 2026-04-24 22:10 | 34.03496 | 155.20913 | 34929 ft | 370 kts | 79° |
| 2026-04-24 22:11 | 34.03536 | 155.27112 | 34929 ft | 370 kts | 79° |
| 2026-04-24 22:11 | 34.03574 | 155.33308 | 34929 ft | 370 kts | 79° |
| 2026-04-24 22:12 | 34.03609 | 155.39507 | 34929 ft | 370 kts | 79° |
| 2026-04-24 22:12 | 34.03641 | 155.45706 | 34929 ft | 370 kts | 79° |
| 2026-04-24 22:13 | 34.03670 | 155.51907 | 34929 ft | 370 kts | 79° |
| 2026-04-24 22:13 | 34.03695 | 155.58106 | 34929 ft | 370 kts | 79° |
| 2026-04-24 22:14 | 34.03718 | 155.64308 | 34929 ft | 370 kts | 79° |
| 2026-04-24 22:14 | 34.03737 | 155.70510 | 34929 ft | 370 kts | 79° |
| 2026-04-24 22:15 | 34.03754 | 155.76711 | 34929 ft | 370 kts | 79° |
| 2026-04-24 22:15 | 34.03767 | 155.82917 | 34929 ft | 370 kts | 79° |
| 2026-04-24 22:16 | 34.03777 | 155.89122 | 34929 ft | 370 kts | 79° |
| 2026-04-24 22:16 | 34.03784 | 155.95328 | 34929 ft | 370 kts | 79° |
| 2026-04-24 22:17 | 34.03788 | 156.01534 | 34929 ft | 370 kts | 79° |
| 2026-04-24 22:17 | 34.03769 | 156.07743 | 34929 ft | 371 kts | 80° |
| 2026-04-24 22:18 | 34.03748 | 156.13955 | 34929 ft | 370 kts | 80° |
| 2026-04-24 22:18 | 34.03735 | 156.20165 | 34929 ft | 370 kts | 80° |
| 2026-04-24 22:19 | 34.03725 | 156.26373 | 34929 ft | 370 kts | 80° |
| 2026-04-24 22:19 | 34.03713 | 156.32542 | 34929 ft | 370 kts | 80° |
| 2026-04-24 22:20 | 34.03698 | 156.38753 | 34929 ft | 370 kts | 80° |
| 2026-04-24 22:20 | 34.03680 | 156.44962 | 34929 ft | 370 kts | 80° |
| 2026-04-24 22:21 | 34.03658 | 156.51172 | 34929 ft | 371 kts | 80° |
| 2026-04-24 22:21 | 34.03634 | 156.57384 | 34929 ft | 371 kts | 80° |
| 2026-04-24 22:22 | 34.03606 | 156.63598 | 34929 ft | 371 kts | 80° |
| 2026-04-24 22:22 | 34.03576 | 156.69811 | 34929 ft | 371 kts | 80° |
| 2026-04-24 22:23 | 34.03542 | 156.76022 | 34929 ft | 371 kts | 80° |
| 2026-04-24 22:23 | 34.03505 | 156.82237 | 34929 ft | 371 kts | 80° |
| 2026-04-24 22:24 | 34.03465 | 156.88454 | 34929 ft | 371 kts | 80° |
| 2026-04-24 22:24 | 34.03421 | 156.94671 | 34929 ft | 371 kts | 80° |
| 2026-04-24 22:25 | 34.03375 | 157.00886 | 34929 ft | 371 kts | 80° |
| 2026-04-24 22:25 | 34.03310 | 157.07108 | 34929 ft | 371 kts | 81° |
| 2026-04-24 22:26 | 34.03236 | 157.13329 | 34929 ft | 371 kts | 80° |
| 2026-04-24 22:26 | 34.03172 | 157.19549 | 34929 ft | 371 kts | 80° |
| 2026-04-24 22:27 | 34.03111 | 157.25767 | 34929 ft | 371 kts | 80° |
| 2026-04-24 22:27 | 34.03049 | 157.31946 | 34929 ft | 371 kts | 80° |
| 2026-04-24 22:28 | 34.02984 | 157.38163 | 34929 ft | 371 kts | 80° |
| 2026-04-24 22:28 | 34.02915 | 157.44385 | 34929 ft | 371 kts | 80° |
| 2026-04-24 22:29 | 34.02807 | 157.53717 | 34929 ft | 371 kts | 81° |
| 2026-04-24 22:29 | 34.02730 | 157.59936 | 34929 ft | 371 kts | 81° |
| 2026-04-24 22:30 | 34.02651 | 157.66160 | 34929 ft | 371 kts | 81° |
| 2026-04-24 22:30 | 34.02568 | 157.72381 | 34929 ft | 371 kts | 81° |
| 2026-04-24 22:31 | 34.02482 | 157.78604 | 34929 ft | 371 kts | 81° |
| 2026-04-24 22:31 | 34.02393 | 157.84830 | 34929 ft | 371 kts | 81° |
| 2026-04-24 22:32 | 34.02301 | 157.91053 | 34929 ft | 371 kts | 81° |
| 2026-04-24 22:32 | 34.02206 | 157.97279 | 34929 ft | 371 kts | 81° |
| 2026-04-24 22:33 | 34.02106 | 158.03502 | 34929 ft | 372 kts | 81° |
| 2026-04-24 22:33 | 34.01981 | 158.09733 | 34929 ft | 372 kts | 81° |
| 2026-04-24 22:34 | 34.01860 | 158.15965 | 34929 ft | 372 kts | 81° |
| 2026-04-24 22:34 | 34.01747 | 158.22194 | 34929 ft | 372 kts | 81° |
| 2026-04-24 22:35 | 34.01635 | 158.28424 | 34929 ft | 372 kts | 81° |
| 2026-04-24 22:35 | 34.01521 | 158.34607 | 34929 ft | 372 kts | 81° |
| 2026-04-24 22:36 | 34.01404 | 158.40838 | 34929 ft | 372 kts | 81° |
| 2026-04-24 22:36 | 34.01283 | 158.47068 | 34929 ft | 372 kts | 81° |
| 2026-04-24 22:37 | 34.01159 | 158.53297 | 34929 ft | 372 kts | 81° |
| 2026-04-24 22:37 | 34.01032 | 158.59530 | 34929 ft | 372 kts | 81° |
| 2026-04-24 22:38 | 34.00902 | 158.65762 | 34929 ft | 372 kts | 81° |
| 2026-04-24 22:38 | 34.00769 | 158.71990 | 34929 ft | 372 kts | 81° |
| 2026-04-24 22:39 | 34.00633 | 158.78223 | 34929 ft | 372 kts | 81° |
| 2026-04-24 22:39 | 34.00493 | 158.84455 | 34929 ft | 372 kts | 81° |
| 2026-04-24 22:40 | 34.00350 | 158.90689 | 34929 ft | 372 kts | 81° |
| 2026-04-24 22:40 | 34.00018 | 158.96949 | 34929 ft | 378 kts | 86° |
| 2026-04-24 22:41 | 33.99320 | 159.03254 | 34929 ft | 380 kts | 87° |
| 2026-04-24 22:41 | 33.98707 | 159.08495 | 34929 ft | 380 kts | 87° |
| 2026-04-24 22:42 | 33.97866 | 159.15820 | 34929 ft | 380 kts | 87° |
| 2026-04-24 22:42 | 33.97151 | 159.22121 | 34929 ft | 380 kts | 87° |
| 2026-04-24 22:43 | 33.96436 | 159.28423 | 34929 ft | 380 kts | 87° |
| 2026-04-24 22:43 | 33.95718 | 159.34727 | 34929 ft | 380 kts | 87° |
| 2026-04-24 22:44 | 33.94996 | 159.41029 | 34929 ft | 380 kts | 87° |
| 2026-04-24 22:44 | 33.94271 | 159.47331 | 34929 ft | 380 kts | 87° |
| 2026-04-24 22:45 | 33.93544 | 159.53629 | 34929 ft | 380 kts | 87° |
| 2026-04-24 22:45 | 33.92812 | 159.59933 | 34929 ft | 380 kts | 87° |
| 2026-04-24 22:46 | 33.92077 | 159.66233 | 34929 ft | 380 kts | 87° |
| 2026-04-24 22:46 | 33.91339 | 159.72534 | 34929 ft | 380 kts | 87° |
| 2026-04-24 22:47 | 33.90598 | 159.78829 | 34929 ft | 380 kts | 87° |
| 2026-04-24 22:47 | 33.89980 | 159.84064 | 34929 ft | 380 kts | 87° |
| 2026-04-24 22:48 | 33.89106 | 159.91426 | 34929 ft | 380 kts | 87° |
| 2026-04-24 22:48 | 33.88336 | 159.97727 | 34929 ft | 381 kts | 88° |
| 2026-04-24 22:49 | 33.87562 | 160.04025 | 34929 ft | 380 kts | 87° |
| 2026-04-24 22:49 | 33.86797 | 160.10320 | 34929 ft | 380 kts | 87° |
| 2026-04-24 22:50 | 33.86034 | 160.16621 | 34929 ft | 380 kts | 87° |
| 2026-04-24 22:50 | 33.85275 | 160.22874 | 34929 ft | 380 kts | 87° |
| 2026-04-24 22:51 | 33.84632 | 160.28146 | 34929 ft | 380 kts | 87° |
| 2026-04-24 22:51 | 33.83992 | 160.33380 | 34929 ft | 380 kts | 87° |
| 2026-04-24 22:52 | 33.83088 | 160.40739 | 34929 ft | 380 kts | 87° |
| 2026-04-24 22:52 | 33.82316 | 160.46990 | 34929 ft | 381 kts | 88° |
| 2026-04-24 22:53 | 33.81536 | 160.53284 | 34929 ft | 381 kts | 88° |
| 2026-04-24 22:53 | 33.80752 | 160.59579 | 34929 ft | 381 kts | 88° |
| 2026-04-24 22:54 | 33.79965 | 160.65871 | 34929 ft | 381 kts | 88° |
| 2026-04-24 22:54 | 33.79175 | 160.72163 | 34929 ft | 381 kts | 88° |
| 2026-04-24 22:55 | 33.78381 | 160.78458 | 34929 ft | 381 kts | 88° |
| 2026-04-24 22:55 | 33.77585 | 160.84749 | 34929 ft | 381 kts | 88° |
| 2026-04-24 22:56 | 33.76785 | 160.91039 | 34929 ft | 381 kts | 88° |
| 2026-04-24 22:56 | 33.75960 | 160.97335 | 34929 ft | 381 kts | 88° |
| 2026-04-24 22:57 | 33.75135 | 161.03626 | 34929 ft | 381 kts | 88° |
| 2026-04-24 22:57 | 33.74319 | 161.09916 | 34929 ft | 381 kts | 88° |
| 2026-04-24 22:58 | 33.73504 | 161.16203 | 34929 ft | 381 kts | 88° |
| 2026-04-24 22:58 | 33.72688 | 161.22493 | 34929 ft | 381 kts | 88° |
| 2026-04-24 22:59 | 33.71868 | 161.28781 | 34934 ft | 381 kts | 88° |
| 2026-04-24 23:00 | 33.70632 | 161.38216 | 34929 ft | 381 kts | 88° |
| 2026-04-24 23:00 | 33.69803 | 161.44503 | 34929 ft | 381 kts | 88° |
| 2026-04-24 23:01 | 33.68977 | 161.50750 | 34929 ft | 381 kts | 88° |
| 2026-04-24 23:01 | 33.68137 | 161.57078 | 34929 ft | 381 kts | 88° |
| 2026-04-24 23:02 | 33.67299 | 161.63364 | 34929 ft | 381 kts | 88° |
| 2026-04-24 23:02 | 33.66457 | 161.69651 | 34929 ft | 381 kts | 88° |
| 2026-04-24 23:03 | 33.65612 | 161.75942 | 34929 ft | 381 kts | 88° |
| 2026-04-24 23:03 | 33.64770 | 161.82183 | 34929 ft | 382 kts | 88° |
| 2026-04-24 23:04 | 33.63919 | 161.88468 | 34929 ft | 382 kts | 88° |
| 2026-04-24 23:04 | 33.63049 | 161.94752 | 34929 ft | 382 kts | 89° |
| 2026-04-24 23:05 | 33.62169 | 162.01040 | 34929 ft | 382 kts | 88° |
| 2026-04-24 23:05 | 33.61300 | 162.07323 | 34929 ft | 382 kts | 88° |
| 2026-04-24 23:06 | 33.60433 | 162.13608 | 34929 ft | 382 kts | 88° |
| 2026-04-24 23:06 | 33.59565 | 162.19889 | 34929 ft | 382 kts | 88° |
| 2026-04-24 23:07 | 33.58694 | 162.26172 | 34932 ft | 382 kts | 88° |
| 2026-04-24 23:07 | 33.57820 | 162.32455 | 34929 ft | 382 kts | 88° |
| 2026-04-24 23:08 | 33.56943 | 162.38732 | 34929 ft | 382 kts | 88° |
| 2026-04-24 23:08 | 33.56062 | 162.45012 | 34929 ft | 382 kts | 89° |
| 2026-04-24 23:09 | 33.55177 | 162.51292 | 34929 ft | 382 kts | 89° |
| 2026-04-24 23:09 | 33.54290 | 162.57571 | 34929 ft | 382 kts | 89° |
| 2026-04-24 23:10 | 33.53399 | 162.63851 | 34929 ft | 382 kts | 89° |
| 2026-04-24 23:10 | 33.52504 | 162.70129 | 34929 ft | 382 kts | 89° |
| 2026-04-24 23:11 | 33.51607 | 162.76409 | 34929 ft | 382 kts | 89° |
| 2026-04-24 23:11 | 33.50706 | 162.82685 | 34929 ft | 382 kts | 89° |
| 2026-04-24 23:12 | 33.49801 | 162.88962 | 34929 ft | 382 kts | 89° |
| 2026-04-24 23:12 | 33.48871 | 162.95237 | 34929 ft | 383 kts | 89° |
| 2026-04-24 23:13 | 33.47950 | 163.01469 | 34929 ft | 382 kts | 89° |
| 2026-04-24 23:13 | 33.47031 | 163.07744 | 34929 ft | 382 kts | 89° |
| 2026-04-24 23:14 | 33.46114 | 163.14016 | 34929 ft | 382 kts | 89° |
| 2026-04-24 23:14 | 33.45193 | 163.20290 | 34929 ft | 383 kts | 89° |
| 2026-04-24 23:15 | 33.44269 | 163.26562 | 34929 ft | 383 kts | 89° |
| 2026-04-24 23:15 | 33.43342 | 163.32835 | 34929 ft | 383 kts | 89° |
| 2026-04-24 23:16 | 33.42412 | 163.39107 | 34929 ft | 383 kts | 89° |
| 2026-04-24 23:16 | 33.41479 | 163.45374 | 34929 ft | 383 kts | 89° |
| 2026-04-24 23:17 | 33.40542 | 163.51643 | 34929 ft | 383 kts | 89° |
| 2026-04-24 23:17 | 33.39602 | 163.57912 | 34929 ft | 383 kts | 89° |
| 2026-04-24 23:18 | 33.38659 | 163.64182 | 34929 ft | 383 kts | 89° |
| 2026-04-24 23:18 | 33.37712 | 163.70450 | 34929 ft | 383 kts | 89° |
| 2026-04-24 23:19 | 33.36763 | 163.76716 | 34929 ft | 383 kts | 89° |
| 2026-04-24 23:19 | 33.35809 | 163.82984 | 34929 ft | 383 kts | 89° |
| 2026-04-24 23:20 | 33.34845 | 163.89250 | 34929 ft | 383 kts | 89° |
| 2026-04-24 23:20 | 33.33861 | 163.95519 | 34929 ft | 383 kts | 89° |
| 2026-04-24 23:21 | 33.32887 | 164.01782 | 34929 ft | 383 kts | 89° |
| 2026-04-24 23:21 | 33.31918 | 164.08047 | 34929 ft | 383 kts | 89° |
| 2026-04-24 23:22 | 33.30948 | 164.14313 | 34933 ft | 383 kts | 89° |
| 2026-04-24 23:22 | 33.29975 | 164.20576 | 34929 ft | 383 kts | 89° |
| 2026-04-24 23:23 | 33.28999 | 164.26835 | 34929 ft | 383 kts | 89° |
| 2026-04-24 23:23 | 33.28019 | 164.33100 | 34929 ft | 383 kts | 89° |
| 2026-04-24 23:24 | 33.27044 | 164.39317 | 34929 ft | 383 kts | 89° |
| 2026-04-24 23:24 | 33.26058 | 164.45577 | 34929 ft | 383 kts | 90° |
| 2026-04-24 23:25 | 33.25069 | 164.51835 | 34929 ft | 383 kts | 90° |
| 2026-04-24 23:25 | 33.24077 | 164.58094 | 34929 ft | 383 kts | 90° |
| 2026-04-24 23:26 | 33.23081 | 164.64349 | 34929 ft | 384 kts | 90° |
| 2026-04-24 23:26 | 33.22082 | 164.70606 | 34929 ft | 384 kts | 90° |
| 2026-04-24 23:27 | 33.21080 | 164.76867 | 34929 ft | 384 kts | 90° |
| 2026-04-24 23:27 | 33.20075 | 164.83121 | 34929 ft | 384 kts | 90° |
| 2026-04-24 23:28 | 33.19048 | 164.89377 | 34929 ft | 384 kts | 90° |
| 2026-04-24 23:28 | 33.18017 | 164.95631 | 34929 ft | 384 kts | 90° |
| 2026-04-24 23:29 | 33.16994 | 165.01885 | 34929 ft | 384 kts | 90° |
| 2026-04-24 23:29 | 33.15974 | 165.08138 | 34929 ft | 384 kts | 90° |
| 2026-04-24 23:30 | 33.14960 | 165.14347 | 34929 ft | 384 kts | 90° |
| 2026-04-24 23:30 | 33.13934 | 165.20602 | 34929 ft | 384 kts | 90° |
| 2026-04-24 23:31 | 33.12906 | 165.26854 | 34929 ft | 384 kts | 90° |
| 2026-04-24 23:31 | 33.11874 | 165.33104 | 34929 ft | 384 kts | 90° |
| 2026-04-24 23:32 | 33.10840 | 165.39352 | 34929 ft | 384 kts | 90° |
| 2026-04-24 23:32 | 33.09802 | 165.45599 | 34929 ft | 384 kts | 90° |
| 2026-04-24 23:33 | 33.08761 | 165.51848 | 34929 ft | 384 kts | 90° |
| 2026-04-24 23:33 | 33.07716 | 165.58095 | 34929 ft | 384 kts | 90° |
| 2026-04-24 23:34 | 33.06668 | 165.64340 | 34929 ft | 384 kts | 90° |
| 2026-04-24 23:34 | 33.05617 | 165.70587 | 34929 ft | 384 kts | 90° |
| 2026-04-24 23:35 | 33.04563 | 165.76833 | 34929 ft | 384 kts | 90° |
| 2026-04-24 23:35 | 33.03415 | 165.83075 | 34929 ft | 389 kts | 94° |
| 2026-04-24 23:36 | 33.01898 | 165.89290 | 34929 ft | 392 kts | 95° |
| 2026-04-24 23:36 | 33.00313 | 165.95499 | 34928 ft | 392 kts | 95° |
| 2026-04-24 23:37 | 32.98742 | 166.01712 | 34929 ft | 391 kts | 95° |
| 2026-04-24 23:37 | 32.96400 | 166.11025 | 34929 ft | 391 kts | 95° |
| 2026-04-24 23:38 | 32.94837 | 166.17236 | 34929 ft | 391 kts | 95° |
| 2026-04-24 23:38 | 32.93271 | 166.23444 | 34929 ft | 392 kts | 95° |
| 2026-04-24 23:39 | 32.91703 | 166.29648 | 34929 ft | 392 kts | 95° |
| 2026-04-24 23:39 | 32.90397 | 166.34803 | 34929 ft | 392 kts | 95° |
| 2026-04-24 23:40 | 32.88822 | 166.41007 | 34929 ft | 392 kts | 95° |
| 2026-04-24 23:40 | 32.86988 | 166.48211 | 34929 ft | 392 kts | 95° |
| 2026-04-24 23:41 | 32.85663 | 166.53405 | 34929 ft | 392 kts | 95° |
| 2026-04-24 23:41 | 32.84079 | 166.59602 | 34929 ft | 392 kts | 96° |
| 2026-04-24 23:42 | 32.82233 | 166.66805 | 34929 ft | 392 kts | 96° |
| 2026-04-24 23:42 | 32.80900 | 166.71994 | 34929 ft | 392 kts | 96° |
| 2026-04-24 23:43 | 32.79298 | 166.78185 | 34929 ft | 392 kts | 96° |
| 2026-04-24 23:43 | 32.77689 | 166.84334 | 34929 ft | 392 kts | 96° |
| 2026-04-24 23:44 | 32.76077 | 166.90524 | 34928 ft | 392 kts | 96° |
| 2026-04-24 23:44 | 32.74471 | 166.96710 | 34929 ft | 392 kts | 96° |
| 2026-04-24 23:45 | 32.72863 | 167.02896 | 34929 ft | 392 kts | 96° |
| 2026-04-24 23:45 | 32.71252 | 167.09086 | 34929 ft | 392 kts | 96° |
| 2026-04-24 23:46 | 32.69638 | 167.15270 | 34929 ft | 392 kts | 96° |
| 2026-04-24 23:46 | 32.68021 | 167.21452 | 34929 ft | 392 kts | 96° |
| 2026-04-24 23:47 | 32.66401 | 167.27634 | 34931 ft | 392 kts | 96° |
| 2026-04-24 23:47 | 32.64777 | 167.33814 | 34929 ft | 392 kts | 96° |
| 2026-04-24 23:48 | 32.63150 | 167.39994 | 34928 ft | 392 kts | 96° |
| 2026-04-24 23:48 | 32.61520 | 167.46171 | 34929 ft | 392 kts | 96° |
| 2026-04-24 23:49 | 32.59887 | 167.52345 | 34928 ft | 392 kts | 96° |
| 2026-04-24 23:49 | 32.58261 | 167.58480 | 34929 ft | 392 kts | 96° |
| 2026-04-24 23:50 | 32.56622 | 167.64650 | 34929 ft | 393 kts | 96° |
| 2026-04-24 23:50 | 32.54977 | 167.70823 | 34929 ft | 393 kts | 96° |
| 2026-04-24 23:51 | 32.53308 | 167.76987 | 34929 ft | 393 kts | 96° |
| 2026-04-24 23:51 | 32.51644 | 167.83156 | 34929 ft | 393 kts | 96° |
| 2026-04-24 23:52 | 32.49988 | 167.89321 | 34929 ft | 393 kts | 96° |
| 2026-04-24 23:52 | 32.48332 | 167.95483 | 34929 ft | 393 kts | 96° |
| 2026-04-24 23:53 | 32.46673 | 168.01647 | 34929 ft | 393 kts | 96° |
| 2026-04-24 23:53 | 32.45011 | 168.07808 | 34928 ft | 393 kts | 96° |
| 2026-04-24 23:54 | 32.43345 | 168.13971 | 34929 ft | 393 kts | 96° |
| 2026-04-24 23:54 | 32.41676 | 168.20130 | 34929 ft | 393 kts | 96° |
| 2026-04-24 23:55 | 32.40005 | 168.26285 | 34929 ft | 393 kts | 96° |
| 2026-04-24 23:55 | 32.38329 | 168.32442 | 34929 ft | 393 kts | 96° |
| 2026-04-24 23:56 | 32.36651 | 168.38596 | 34929 ft | 393 kts | 96° |
| 2026-04-24 23:56 | 32.34969 | 168.44750 | 34929 ft | 393 kts | 96° |
| 2026-04-24 23:57 | 32.33285 | 168.50897 | 34929 ft | 393 kts | 96° |
| 2026-04-24 23:57 | 32.31597 | 168.57048 | 34929 ft | 393 kts | 96° |
| 2026-04-24 23:58 | 32.29906 | 168.63193 | 34929 ft | 393 kts | 97° |
| 2026-04-24 23:58 | 32.28193 | 168.69335 | 34929 ft | 394 kts | 97° |
| 2026-04-24 23:59 | 32.26479 | 168.75478 | 34929 ft | 393 kts | 97° |
| 2026-04-24 23:59 | 32.24772 | 168.81622 | 34929 ft | 393 kts | 97° |
| 2026-04-25 00:00 | 32.23068 | 168.87759 | 34928 ft | 393 kts | 97° |
| 2026-04-25 00:00 | 32.21361 | 168.93899 | 34929 ft | 393 kts | 97° |
| 2026-04-25 00:01 | 32.19664 | 168.99992 | 34928 ft | 393 kts | 97° |
| 2026-04-25 00:01 | 32.17951 | 169.06127 | 34929 ft | 394 kts | 97° |
| 2026-04-25 00:02 | 32.16233 | 169.12266 | 34929 ft | 394 kts | 97° |
| 2026-04-25 00:02 | 32.14515 | 169.18394 | 34928 ft | 394 kts | 97° |
| 2026-04-25 00:03 | 32.12792 | 169.24526 | 34928 ft | 394 kts | 97° |
| 2026-04-25 00:03 | 32.11066 | 169.30656 | 34929 ft | 394 kts | 97° |
| 2026-04-25 00:04 | 32.09338 | 169.36780 | 34929 ft | 394 kts | 97° |
| 2026-04-25 00:04 | 32.07605 | 169.42908 | 34928 ft | 394 kts | 97° |
| 2026-04-25 00:05 | 32.05870 | 169.49031 | 34929 ft | 394 kts | 97° |
| 2026-04-25 00:05 | 32.04131 | 169.55157 | 34929 ft | 394 kts | 97° |
| 2026-04-25 00:06 | 32.02375 | 169.61274 | 34929 ft | 394 kts | 97° |
| 2026-04-25 00:06 | 32.00610 | 169.67393 | 34928 ft | 394 kts | 97° |
| 2026-04-25 00:07 | 31.98856 | 169.73507 | 34929 ft | 394 kts | 97° |
| 2026-04-25 00:07 | 31.97103 | 169.79624 | 34928 ft | 394 kts | 97° |
| 2026-04-25 00:08 | 31.95349 | 169.85739 | 34929 ft | 394 kts | 97° |
| 2026-04-25 00:08 | 31.93603 | 169.91811 | 34929 ft | 394 kts | 97° |
| 2026-04-25 00:09 | 31.91844 | 169.97918 | 34929 ft | 394 kts | 97° |
| 2026-04-25 00:09 | 31.90079 | 170.04032 | 34928 ft | 394 kts | 97° |
| 2026-04-25 00:10 | 31.88312 | 170.10143 | 34929 ft | 394 kts | 97° |
| 2026-04-25 00:10 | 31.86543 | 170.16245 | 34931 ft | 394 kts | 97° |
| 2026-04-25 00:11 | 31.84768 | 170.22354 | 34933 ft | 394 kts | 97° |
| 2026-04-25 00:11 | 31.82993 | 170.28455 | 34929 ft | 394 kts | 97° |
| 2026-04-25 00:12 | 31.81212 | 170.34559 | 34929 ft | 394 kts | 97° |
| 2026-04-25 00:12 | 31.79430 | 170.40657 | 34929 ft | 395 kts | 97° |
| 2026-04-25 00:13 | 31.77644 | 170.46759 | 34928 ft | 395 kts | 97° |
| 2026-04-25 00:13 | 31.75845 | 170.52855 | 34932 ft | 395 kts | 98° |
| 2026-04-25 00:14 | 31.74033 | 170.58945 | 34929 ft | 395 kts | 98° |
| 2026-04-25 00:14 | 31.72228 | 170.65038 | 34928 ft | 395 kts | 98° |
| 2026-04-25 00:15 | 31.70428 | 170.71130 | 34929 ft | 395 kts | 98° |
| 2026-04-25 00:15 | 31.68626 | 170.77220 | 34928 ft | 395 kts | 98° |
| 2026-04-25 00:16 | 31.66822 | 170.83309 | 34928 ft | 395 kts | 98° |
| 2026-04-25 00:16 | 31.65015 | 170.89394 | 34933 ft | 395 kts | 98° |
| 2026-04-25 00:17 | 31.63204 | 170.95480 | 34929 ft | 395 kts | 98° |
| 2026-04-25 00:17 | 31.61390 | 171.01562 | 34931 ft | 395 kts | 98° |
| 2026-04-25 00:18 | 31.59586 | 171.07603 | 34928 ft | 395 kts | 98° |
| 2026-04-25 00:18 | 31.57765 | 171.13685 | 34929 ft | 395 kts | 98° |
| 2026-04-25 00:19 | 31.55943 | 171.19762 | 34929 ft | 395 kts | 98° |
| 2026-04-25 00:19 | 31.54117 | 171.25838 | 34928 ft | 395 kts | 98° |
| 2026-04-25 00:20 | 31.52287 | 171.31914 | 34931 ft | 395 kts | 98° |
| 2026-04-25 00:20 | 31.50454 | 171.37989 | 34929 ft | 395 kts | 98° |
| 2026-04-25 00:21 | 31.48614 | 171.44054 | 34929 ft | 396 kts | 98° |
| 2026-04-25 00:21 | 31.46753 | 171.50122 | 34928 ft | 396 kts | 98° |
| 2026-04-25 00:22 | 31.44902 | 171.56186 | 34931 ft | 395 kts | 98° |
| 2026-04-25 00:22 | 31.43054 | 171.62255 | 34928 ft | 395 kts | 98° |
| 2026-04-25 00:23 | 31.41207 | 171.68316 | 34929 ft | 395 kts | 98° |
| 2026-04-25 00:23 | 31.39357 | 171.74377 | 34928 ft | 395 kts | 98° |
| 2026-04-25 00:24 | 31.37503 | 171.80438 | 34929 ft | 396 kts | 98° |
| 2026-04-25 00:24 | 31.35646 | 171.86498 | 34928 ft | 396 kts | 98° |
| 2026-04-25 00:25 | 31.33785 | 171.92557 | 34929 ft | 396 kts | 98° |
| 2026-04-25 00:25 | 31.31935 | 171.98571 | 34929 ft | 396 kts | 98° |
| 2026-04-25 00:26 | 31.30070 | 172.04622 | 34928 ft | 396 kts | 98° |
| 2026-04-25 00:26 | 31.28200 | 172.10676 | 34928 ft | 396 kts | 98° |
| 2026-04-25 00:27 | 31.26327 | 172.16729 | 34930 ft | 396 kts | 98° |
| 2026-04-25 00:27 | 31.24453 | 172.22775 | 34928 ft | 396 kts | 98° |
| 2026-04-25 00:28 | 31.22573 | 172.28826 | 34928 ft | 396 kts | 98° |
| 2026-04-25 00:28 | 31.20689 | 172.34869 | 34928 ft | 396 kts | 99° |
| 2026-04-25 00:29 | 31.18784 | 172.40906 | 34928 ft | 396 kts | 99° |
| 2026-04-25 00:29 | 31.16884 | 172.46948 | 34929 ft | 396 kts | 98° |
| 2026-04-25 00:30 | 31.14989 | 172.52989 | 34928 ft | 396 kts | 98° |
| 2026-04-25 00:30 | 31.13096 | 172.59025 | 34928 ft | 396 kts | 98° |
| 2026-04-25 00:31 | 31.11521 | 172.64040 | 34929 ft | 396 kts | 98° |
| 2026-04-25 00:31 | 31.09621 | 172.70079 | 34929 ft | 396 kts | 99° |
| 2026-04-25 00:32 | 31.07719 | 172.76110 | 34928 ft | 396 kts | 99° |
| 2026-04-25 00:32 | 31.05813 | 172.82144 | 34928 ft | 396 kts | 99° |
| 2026-04-25 00:33 | 31.03906 | 172.88171 | 34928 ft | 396 kts | 99° |
| 2026-04-25 00:33 | 31.01994 | 172.94200 | 34929 ft | 396 kts | 99° |
| 2026-04-25 00:34 | 31.00085 | 173.00229 | 34928 ft | 396 kts | 98° |
| 2026-04-25 00:34 | 30.98230 | 173.06262 | 34928 ft | 395 kts | 98° |
| 2026-04-25 00:35 | 30.96398 | 173.12301 | 34929 ft | 395 kts | 98° |
| 2026-04-25 00:35 | 30.94579 | 173.18302 | 34929 ft | 395 kts | 98° |
| 2026-04-25 00:36 | 30.92733 | 173.24379 | 34928 ft | 395 kts | 98° |
| 2026-04-25 00:36 | 30.90908 | 173.30372 | 34928 ft | 395 kts | 98° |
| 2026-04-25 00:37 | 30.89068 | 173.36405 | 34928 ft | 395 kts | 98° |
| 2026-04-25 00:37 | 30.87213 | 173.42474 | 34931 ft | 395 kts | 98° |
| 2026-04-25 00:38 | 30.85379 | 173.48465 | 34929 ft | 395 kts | 98° |
| 2026-04-25 00:38 | 30.83530 | 173.54490 | 34933 ft | 395 kts | 98° |
| 2026-04-25 00:39 | 30.81678 | 173.60515 | 34928 ft | 396 kts | 98° |
| 2026-04-25 00:39 | 30.79823 | 173.66537 | 34928 ft | 396 kts | 98° |
| 2026-04-25 00:40 | 30.77964 | 173.72563 | 34928 ft | 396 kts | 98° |
| 2026-04-25 00:40 | 30.76103 | 173.78582 | 34928 ft | 396 kts | 98° |
| 2026-04-25 00:41 | 30.74239 | 173.84599 | 34929 ft | 396 kts | 98° |
| 2026-04-25 00:41 | 30.72369 | 173.90619 | 34928 ft | 396 kts | 98° |
| 2026-04-25 00:42 | 30.70479 | 173.96628 | 34928 ft | 396 kts | 98° |
| 2026-04-25 00:42 | 30.68593 | 174.02639 | 34929 ft | 396 kts | 98° |
| 2026-04-25 00:43 | 30.66713 | 174.08650 | 34932 ft | 396 kts | 98° |
| 2026-04-25 00:43 | 30.64833 | 174.14661 | 34929 ft | 396 kts | 98° |
| 2026-04-25 00:44 | 30.62951 | 174.20668 | 34928 ft | 396 kts | 98° |
| 2026-04-25 00:44 | 30.61065 | 174.26678 | 34931 ft | 396 kts | 98° |
| 2026-04-25 00:45 | 30.59178 | 174.32682 | 34928 ft | 396 kts | 98° |
| 2026-04-25 00:45 | 30.57299 | 174.38646 | 34928 ft | 396 kts | 98° |
| 2026-04-25 00:46 | 30.55405 | 174.44648 | 34928 ft | 396 kts | 98° |
| 2026-04-25 00:47 | 30.52558 | 174.53646 | 34929 ft | 396 kts | 99° |
| 2026-04-25 00:47 | 30.50656 | 174.59646 | 34929 ft | 396 kts | 99° |
| 2026-04-25 00:48 | 30.48752 | 174.65640 | 34928 ft | 396 kts | 99° |
| 2026-04-25 00:48 | 30.46844 | 174.71636 | 34931 ft | 396 kts | 99° |
| 2026-04-25 00:49 | 30.44934 | 174.77628 | 34929 ft | 396 kts | 99° |
| 2026-04-25 00:49 | 30.43012 | 174.83616 | 34928 ft | 397 kts | 99° |
| 2026-04-25 00:50 | 30.41077 | 174.89599 | 34928 ft | 397 kts | 99° |
| 2026-04-25 00:50 | 30.39149 | 174.95586 | 34928 ft | 397 kts | 99° |
| 2026-04-25 00:51 | 30.37224 | 175.01572 | 34929 ft | 397 kts | 99° |
| 2026-04-25 00:51 | 30.35298 | 175.07557 | 34928 ft | 397 kts | 99° |
| 2026-04-25 00:52 | 30.33371 | 175.13539 | 34929 ft | 397 kts | 99° |
| 2026-04-25 00:52 | 30.31439 | 175.19520 | 34928 ft | 397 kts | 99° |
| 2026-04-25 00:53 | 30.29505 | 175.25499 | 34929 ft | 397 kts | 99° |
| 2026-04-25 00:53 | 30.27567 | 175.31479 | 34928 ft | 397 kts | 99° |
| 2026-04-25 00:54 | 30.25628 | 175.37451 | 34928 ft | 397 kts | 99° |
| 2026-04-25 00:54 | 30.23685 | 175.43426 | 34929 ft | 397 kts | 99° |
| 2026-04-25 00:55 | 30.21752 | 175.49360 | 34929 ft | 397 kts | 99° |
| 2026-04-25 00:55 | 30.19804 | 175.55328 | 34929 ft | 397 kts | 99° |
| 2026-04-25 00:56 | 30.17852 | 175.61297 | 34928 ft | 397 kts | 99° |
| 2026-04-25 00:56 | 30.15896 | 175.67266 | 34928 ft | 397 kts | 99° |
| 2026-04-25 00:57 | 30.13933 | 175.73228 | 34928 ft | 397 kts | 99° |
| 2026-04-25 00:57 | 30.11953 | 175.79186 | 34929 ft | 397 kts | 99° |
| 2026-04-25 00:58 | 30.09979 | 175.85149 | 34929 ft | 397 kts | 99° |
| 2026-04-25 00:58 | 30.08012 | 175.91105 | 34928 ft | 397 kts | 99° |
| 2026-04-25 00:59 | 30.06042 | 175.97063 | 34928 ft | 397 kts | 99° |
| 2026-04-25 00:59 | 30.04070 | 176.03021 | 34928 ft | 397 kts | 99° |
| 2026-04-25 01:00 | 30.02094 | 176.08979 | 34929 ft | 397 kts | 99° |
| 2026-04-25 01:00 | 30.00116 | 176.14931 | 34928 ft | 397 kts | 99° |
| 2026-04-25 01:01 | 29.98136 | 176.20881 | 34929 ft | 397 kts | 99° |
| 2026-04-25 01:01 | 29.96152 | 176.26829 | 34928 ft | 397 kts | 99° |
| 2026-04-25 01:02 | 29.94165 | 176.32780 | 34931 ft | 397 kts | 99° |
| 2026-04-25 01:02 | 29.92177 | 176.38721 | 34933 ft | 398 kts | 99° |
| 2026-04-25 01:03 | 29.90184 | 176.44666 | 34928 ft | 398 kts | 99° |
| 2026-04-25 01:03 | 29.88188 | 176.50610 | 34929 ft | 398 kts | 99° |
| 2026-04-25 01:04 | 29.86191 | 176.56547 | 34929 ft | 398 kts | 99° |
| 2026-04-25 01:04 | 29.84184 | 176.62487 | 34929 ft | 398 kts | 100° |
| 2026-04-25 01:05 | 29.82160 | 176.68420 | 34928 ft | 398 kts | 100° |
| 2026-04-25 01:05 | 29.80157 | 176.74314 | 34929 ft | 398 kts | 100° |
| 2026-04-25 01:06 | 29.78145 | 176.80246 | 34929 ft | 398 kts | 100° |
| 2026-04-25 01:06 | 29.76133 | 176.86174 | 34929 ft | 398 kts | 100° |
| 2026-04-25 01:07 | 29.74117 | 176.92106 | 34929 ft | 398 kts | 100° |
| 2026-04-25 01:07 | 29.72100 | 176.98032 | 34929 ft | 398 kts | 100° |
| 2026-04-25 01:08 | 29.70078 | 177.03959 | 34928 ft | 398 kts | 100° |
| 2026-04-25 01:08 | 29.68054 | 177.09885 | 34929 ft | 398 kts | 100° |
| 2026-04-25 01:09 | 29.66027 | 177.15806 | 34928 ft | 398 kts | 100° |
| 2026-04-25 01:09 | 29.63998 | 177.21727 | 34929 ft | 398 kts | 100° |
| 2026-04-25 01:10 | 29.61967 | 177.27643 | 34929 ft | 398 kts | 100° |
| 2026-04-25 01:10 | 29.59931 | 177.33561 | 34929 ft | 398 kts | 100° |
| 2026-04-25 01:11 | 29.57893 | 177.39476 | 34928 ft | 398 kts | 100° |
| 2026-04-25 01:11 | 29.55852 | 177.45390 | 34932 ft | 398 kts | 100° |
| 2026-04-25 01:12 | 29.53803 | 177.51301 | 34928 ft | 398 kts | 100° |
| 2026-04-25 01:12 | 29.51737 | 177.57205 | 34929 ft | 398 kts | 100° |
| 2026-04-25 01:13 | 29.49678 | 177.63111 | 34928 ft | 398 kts | 100° |
| 2026-04-25 01:13 | 29.47623 | 177.69016 | 34928 ft | 398 kts | 100° |
| 2026-04-25 01:14 | 29.45566 | 177.74924 | 34929 ft | 398 kts | 100° |
| 2026-04-25 01:14 | 29.43508 | 177.80827 | 34929 ft | 398 kts | 100° |
| 2026-04-25 01:15 | 29.41448 | 177.86725 | 34929 ft | 399 kts | 100° |
| 2026-04-25 01:15 | 29.39398 | 177.92587 | 34928 ft | 399 kts | 100° |
| 2026-04-25 01:16 | 29.37331 | 177.98485 | 34928 ft | 399 kts | 100° |
| 2026-04-25 01:16 | 29.35262 | 178.04381 | 34928 ft | 399 kts | 100° |
| 2026-04-25 01:17 | 29.33189 | 178.10275 | 34931 ft | 399 kts | 101° |
| 2026-04-25 01:17 | 29.31115 | 178.16165 | 34929 ft | 399 kts | 101° |
| 2026-04-25 01:18 | 29.29037 | 178.22055 | 34928 ft | 399 kts | 101° |
| 2026-04-25 01:18 | 29.26956 | 178.27945 | 34929 ft | 399 kts | 101° |
| 2026-04-25 01:19 | 29.24871 | 178.33836 | 34929 ft | 399 kts | 101° |
| 2026-04-25 01:19 | 29.23122 | 178.38766 | 34928 ft | 399 kts | 101° |
| 2026-04-25 01:20 | 29.21015 | 178.44644 | 34928 ft | 399 kts | 101° |
| 2026-04-25 01:20 | 29.18570 | 178.51479 | 34929 ft | 399 kts | 101° |
| 2026-04-25 01:21 | 29.16828 | 178.56362 | 34929 ft | 399 kts | 101° |
| 2026-04-25 01:21 | 29.14730 | 178.62242 | 34929 ft | 399 kts | 101° |
| 2026-04-25 01:22 | 29.12630 | 178.68119 | 34932 ft | 399 kts | 101° |
| 2026-04-25 01:22 | 29.10527 | 178.73995 | 34928 ft | 399 kts | 101° |
| 2026-04-25 01:23 | 29.08422 | 178.79865 | 34929 ft | 399 kts | 101° |
| 2026-04-25 01:23 | 29.06313 | 178.85739 | 34928 ft | 399 kts | 101° |
| 2026-04-25 01:24 | 29.04202 | 178.91608 | 34929 ft | 399 kts | 101° |
| 2026-04-25 01:24 | 29.02088 | 178.97477 | 34929 ft | 399 kts | 101° |
| 2026-04-25 01:25 | 28.99972 | 179.03341 | 34929 ft | 399 kts | 101° |
| 2026-04-25 01:25 | 28.97853 | 179.09205 | 34928 ft | 399 kts | 101° |
| 2026-04-25 01:26 | 28.95730 | 179.15067 | 34928 ft | 399 kts | 101° |
| 2026-04-25 01:26 | 28.93760 | 179.20955 | 34928 ft | 393 kts | 96° |
| 2026-04-25 01:27 | 28.92193 | 179.26908 | 34929 ft | 391 kts | 95° |
| 2026-04-25 01:27 | 28.90696 | 179.32863 | 34929 ft | 391 kts | 95° |
| 2026-04-25 01:28 | 28.88425 | 179.41794 | 34929 ft | 391 kts | 95° |
| 2026-04-25 01:28 | 28.86904 | 179.47703 | 34926 ft | 388 kts | 95° |
| 2026-04-25 01:29 | 28.85392 | 179.53593 | 34932 ft | 392 kts | 95° |
| 2026-04-25 01:29 | 28.83852 | 179.59569 | 34930 ft | 393 kts | 95° |
| 2026-04-25 01:30 | 28.82303 | 179.65546 | 34928 ft | 392 kts | 95° |
| 2026-04-25 01:30 | 28.80760 | 179.71494 | 34929 ft | 391 kts | 95° |
| 2026-04-25 01:31 | 28.79217 | 179.77438 | 34929 ft | 391 kts | 95° |
| 2026-04-25 01:31 | 28.77671 | 179.83382 | 34929 ft | 391 kts | 95° |
| 2026-04-25 01:32 | 28.76122 | 179.89328 | 34929 ft | 391 kts | 95° |
| 2026-04-25 01:32 | 28.74570 | 179.95269 | 34929 ft | 391 kts | 95° |
| 2026-04-25 01:33 | 28.73015 | -179.98788 | 34929 ft | 391 kts | 95° |
| 2026-04-25 01:33 | 28.71457 | -179.92847 | 34929 ft | 391 kts | 95° |
| 2026-04-25 01:34 | 28.69884 | -179.86912 | 34929 ft | 392 kts | 95° |
| 2026-04-25 01:34 | 28.68304 | -179.80975 | 34929 ft | 392 kts | 95° |
| 2026-04-25 01:35 | 28.66732 | -179.75040 | 34929 ft | 391 kts | 95° |
| 2026-04-25 01:35 | 28.65162 | -179.69104 | 34929 ft | 392 kts | 95° |
| 2026-04-25 01:36 | 28.63590 | -179.63169 | 34929 ft | 392 kts | 95° |
| 2026-04-25 01:36 | 28.62016 | -179.57237 | 34929 ft | 392 kts | 95° |
| 2026-04-25 01:37 | 28.60438 | -179.51301 | 34929 ft | 392 kts | 95° |
| 2026-04-25 01:37 | 28.58859 | -179.45374 | 34929 ft | 392 kts | 95° |
| 2026-04-25 01:38 | 28.57276 | -179.39443 | 34929 ft | 392 kts | 95° |
| 2026-04-25 01:38 | 28.55691 | -179.33514 | 34929 ft | 392 kts | 96° |
| 2026-04-25 01:39 | 28.54113 | -179.27625 | 34929 ft | 392 kts | 96° |
| 2026-04-25 01:39 | 28.52522 | -179.21699 | 34929 ft | 392 kts | 96° |
| 2026-04-25 01:40 | 28.50929 | -179.15775 | 34931 ft | 392 kts | 96° |
| 2026-04-25 01:40 | 28.49333 | -179.09851 | 34929 ft | 392 kts | 96° |
| 2026-04-25 01:41 | 28.47734 | -179.03930 | 34929 ft | 392 kts | 96° |
| 2026-04-25 01:41 | 28.46126 | -178.98009 | 34929 ft | 392 kts | 96° |
| 2026-04-25 01:42 | 28.44503 | -178.92094 | 34929 ft | 392 kts | 96° |
| 2026-04-25 01:42 | 28.42887 | -178.86178 | 34929 ft | 392 kts | 96° |
| 2026-04-25 01:43 | 28.41274 | -178.80258 | 34929 ft | 392 kts | 96° |
| 2026-04-25 01:43 | 28.39662 | -178.74341 | 34929 ft | 392 kts | 96° |
| 2026-04-25 01:44 | 28.38047 | -178.68427 | 34929 ft | 392 kts | 96° |
| 2026-04-25 01:44 | 28.36428 | -178.62512 | 34929 ft | 392 kts | 96° |
| 2026-04-25 01:45 | 28.34807 | -178.56600 | 34929 ft | 392 kts | 96° |
| 2026-04-25 01:45 | 28.33184 | -178.50690 | 34929 ft | 392 kts | 96° |
| 2026-04-25 01:46 | 28.31558 | -178.44779 | 34929 ft | 392 kts | 96° |
| 2026-04-25 01:46 | 28.29928 | -178.38868 | 34929 ft | 392 kts | 96° |
| 2026-04-25 01:47 | 28.28296 | -178.32960 | 34929 ft | 392 kts | 96° |
| 2026-04-25 01:47 | 28.26662 | -178.27054 | 34929 ft | 392 kts | 96° |
| 2026-04-25 01:48 | 28.25025 | -178.21149 | 34929 ft | 392 kts | 96° |
| 2026-04-25 01:48 | 28.23385 | -178.15246 | 34929 ft | 392 kts | 96° |
| 2026-04-25 01:49 | 28.21740 | -178.09344 | 34929 ft | 393 kts | 96° |
| 2026-04-25 01:49 | 28.20076 | -178.03446 | 34929 ft | 393 kts | 96° |
| 2026-04-25 01:50 | 28.18417 | -177.97547 | 34929 ft | 393 kts | 96° |
| 2026-04-25 01:50 | 28.16774 | -177.91686 | 34929 ft | 393 kts | 96° |
| 2026-04-25 01:51 | 28.15120 | -177.85789 | 34929 ft | 393 kts | 96° |
| 2026-04-25 01:51 | 28.13464 | -177.79894 | 34931 ft | 393 kts | 96° |
| 2026-04-25 01:52 | 28.11807 | -177.74002 | 34929 ft | 393 kts | 96° |